Wetterdaten: Mittwoch, 16.01.2008
Datum Zeit Temp. Innen Temp. Aussen Feuchte Inne Feuchte Auss Luftdruck Regen ab 0,1 Wind
16.01.2008 00:00 18,0 C 9,6 C 45 % 70 % 989,3 hPa 0,0 l/m 2,2 km/h (1 Bft)
16.01.2008 00:02 18,0 C 9,6 C 45 % 70 % 989,3 hPa 0,0 l/m 9,4 km/h (2 Bft)
16.01.2008 00:04 18,0 C 9,6 C 45 % 70 % 989,3 hPa 0,0 l/m 5,0 km/h (1 Bft)
16.01.2008 00:06 18,0 C 9,6 C 45 % 70 % 989,3 hPa 0,0 l/m 10,1 km/h (2 Bft)
16.01.2008 00:08 18,0 C 9,6 C 45 % 70 % 989,3 hPa 0,0 l/m 1,4 km/h (1 Bft)
16.01.2008 00:10 18,0 C 9,6 C 45 % 70 % 989,3 hPa 0,0 l/m 1,4 km/h (1 Bft)
16.01.2008 00:12 18,0 C 9,6 C 45 % 69 % 989,3 hPa 0,0 l/m 9,7 km/h (2 Bft)
16.01.2008 00:14 18,0 C 9,6 C 45 % 69 % 989,3 hPa 0,0 l/m 9,0 km/h (2 Bft)
16.01.2008 00:16 18,0 C 9,7 C 44 % 69 % 989,3 hPa 0,0 l/m 4,3 km/h (1 Bft)
16.01.2008 00:18 18,0 C 9,8 C 44 % 69 % 989,3 hPa 0,0 l/m 6,1 km/h (2 Bft)
16.01.2008 00:20 17,9 C 9,8 C 44 % 69 % 989,3 hPa 0,0 l/m 2,5 km/h (1 Bft)
16.01.2008 00:22 17,9 C 9,8 C 44 % 69 % 989,3 hPa 0,0 l/m 3,6 km/h (1 Bft)
16.01.2008 00:24 17,9 C 9,8 C 44 % 69 % 989,3 hPa 0,0 l/m 7,6 km/h (2 Bft)
16.01.2008 00:26 17,9 C 9,8 C 44 % 69 % 989,3 hPa 0,0 l/m 4,0 km/h (1 Bft)
16.01.2008 00:28 17,9 C 9,8 C 44 % 69 % 989,3 hPa 0,0 l/m 6,5 km/h (2 Bft)
16.01.2008 00:30 17,9 C 9,8 C 44 % 69 % 988,3 hPa 0,0 l/m 5,4 km/h (1 Bft)
16.01.2008 00:32 17,8 C 9,8 C 44 % 69 % 989,3 hPa 0,0 l/m 4,7 km/h (1 Bft)
16.01.2008 00:34 17,8 C 9,8 C 44 % 69 % 989,3 hPa 0,0 l/m 0,7 km/h (0 Bft)
16.01.2008 00:36 17,8 C 9,9 C 44 % 68 % 988,3 hPa 0,0 l/m 10,8 km/h (2 Bft)
16.01.2008 00:38 17,8 C 9,9 C 44 % 68 % 989,3 hPa 0,0 l/m 2,2 km/h (1 Bft)
16.01.2008 00:40 17,8 C 9,9 C 44 % 68 % 989,3 hPa 0,0 l/m 2,2 km/h (1 Bft)
16.01.2008 00:42 17,8 C 9,9 C 44 % 68 % 989,3 hPa 0,0 l/m 6,1 km/h (2 Bft)
16.01.2008 00:44 17,8 C 9,9 C 44 % 68 % 989,3 hPa 0,0 l/m 22,0 km/h (4 Bft)
16.01.2008 00:46 17,8 C 9,9 C 44 % 68 % 988,3 hPa 0,0 l/m 2,9 km/h (1 Bft)
16.01.2008 00:48 17,8 C 9,9 C 44 % 68 % 988,3 hPa 0,0 l/m 5,8 km/h (2 Bft)
16.01.2008 00:50 17,8 C 9,9 C 44 % 68 % 988,3 hPa 0,0 l/m 0,0 km/h (0 Bft)
16.01.2008 00:52 17,7 C 9,9 C 44 % 68 % 988,3 hPa 0,0 l/m 9,7 km/h (2 Bft)
16.01.2008 00:54 17,7 C 9,9 C 44 % 68 % 988,3 hPa 0,0 l/m 14,8 km/h (3 Bft)
16.01.2008 00:56 17,7 C 9,9 C 44 % 68 % 988,3 hPa 0,0 l/m 0,0 km/h (0 Bft)
16.01.2008 00:58 17,7 C 9,9 C 44 % 68 % 988,3 hPa 0,0 l/m 1,8 km/h (1 Bft)
16.01.2008 01:00 17,7 C 9,9 C 44 % 68 % 988,3 hPa 0,0 l/m 18,7 km/h (3 Bft)
16.01.2008 01:02 17,7 C 9,9 C 44 % 68 % 988,3 hPa 0,0 l/m 0,0 km/h (0 Bft)
16.01.2008 01:04 17,7 C 9,9 C 44 % 68 % 989,3 hPa 0,0 l/m 8,3 km/h (2 Bft)
16.01.2008 01:06 17,7 C 9,9 C 44 % 68 % 989,3 hPa 0,0 l/m 8,3 km/h (2 Bft)
16.01.2008 01:08 17,7 C 9,9 C 44 % 68 % 988,3 hPa 0,0 l/m 4,3 km/h (1 Bft)
16.01.2008 01:10 17,7 C 9,9 C 44 % 68 % 989,3 hPa 0,0 l/m 4,3 km/h (1 Bft)
16.01.2008 01:12 17,7 C 9,9 C 44 % 68 % 988,3 hPa 0,0 l/m 6,8 km/h (2 Bft)
16.01.2008 01:14 17,7 C 9,9 C 44 % 68 % 988,3 hPa 0,0 l/m 0,0 km/h (0 Bft)
16.01.2008 01:16 17,6 C 9,9 C 44 % 68 % 988,3 hPa 0,0 l/m 9,7 km/h (2 Bft)
16.01.2008 01:18 17,7 C 9,9 C 44 % 68 % 988,3 hPa 0,0 l/m 15,8 km/h (3 Bft)
16.01.2008 01:20 17,6 C 9,9 C 44 % 68 % 988,3 hPa 0,0 l/m 10,4 km/h (2 Bft)
16.01.2008 01:22 17,6 C 9,9 C 44 % 68 % 988,3 hPa 0,0 l/m 7,2 km/h (2 Bft)
16.01.2008 01:24 17,6 C 9,9 C 44 % 68 % 988,3 hPa 0,0 l/m 9,4 km/h (2 Bft)
16.01.2008 01:26 17,6 C 9,9 C 44 % 68 % 988,3 hPa 0,0 l/m 5,0 km/h (1 Bft)
16.01.2008 01:28 17,6 C 9,9 C 44 % 68 % 988,3 hPa 0,0 l/m 18,4 km/h (3 Bft)
16.01.2008 01:30 17,6 C 9,9 C 44 % 68 % 988,3 hPa 0,0 l/m 8,6 km/h (2 Bft)
16.01.2008 01:32 17,6 C 9,9 C 44 % 68 % 988,3 hPa 0,0 l/m 5,4 km/h (1 Bft)
16.01.2008 01:34 17,6 C 9,9 C 44 % 68 % 988,3 hPa 0,0 l/m 6,1 km/h (2 Bft)
16.01.2008 01:36 17,6 C 9,9 C 44 % 68 % 988,3 hPa 0,0 l/m 7,6 km/h (2 Bft)
16.01.2008 01:38 17,6 C 9,9 C 44 % 68 % 988,3 hPa 0,0 l/m 7,6 km/h (2 Bft)
16.01.2008 01:40 17,6 C 9,9 C 44 % 68 % 988,3 hPa 0,0 l/m 7,6 km/h (2 Bft)
16.01.2008 01:42 17,6 C 9,9 C 44 % 68 % 988,3 hPa 0,0 l/m 1,1 km/h (1 Bft)
16.01.2008 01:44 17,6 C 9,9 C 44 % 68 % 988,3 hPa 0,0 l/m 14,4 km/h (3 Bft)
16.01.2008 01:46 17,6 C 9,9 C 44 % 68 % 988,3 hPa 0,0 l/m 10,4 km/h (2 Bft)
16.01.2008 01:48 17,6 C 9,9 C 44 % 68 % 988,3 hPa 0,0 l/m 9,4 km/h (2 Bft)
16.01.2008 01:50 17,6 C 9,9 C 44 % 68 % 988,3 hPa 0,0 l/m 4,7 km/h (1 Bft)
16.01.2008 01:52 17,6 C 9,9 C 44 % 68 % 988,3 hPa 0,0 l/m 7,6 km/h (2 Bft)
16.01.2008 01:54 17,6 C 9,9 C 44 % 68 % 988,3 hPa 0,0 l/m 7,2 km/h (2 Bft)
16.01.2008 01:56 17,6 C 9,9 C 44 % 68 % 988,3 hPa 0,0 l/m 5,0 km/h (1 Bft)
16.01.2008 01:58 17,6 C 9,9 C 44 % 68 % 988,3 hPa 0,0 l/m 6,1 km/h (2 Bft)
16.01.2008 02:00 17,6 C 9,8 C 44 % 68 % 988,3 hPa 0,0 l/m 5,4 km/h (1 Bft)
16.01.2008 02:02 17,6 C 9,8 C 44 % 68 % 988,3 hPa 0,0 l/m 5,4 km/h (1 Bft)
16.01.2008 02:04 17,5 C 9,8 C 44 % 68 % 988,3 hPa 0,0 l/m 5,4 km/h (1 Bft)
16.01.2008 02:06 17,5 C 9,8 C 44 % 68 % 988,3 hPa 0,0 l/m 5,8 km/h (2 Bft)
16.01.2008 02:08 17,6 C 9,8 C 44 % 68 % 988,3 hPa 0,0 l/m 5,8 km/h (2 Bft)
16.01.2008 02:10 17,5 C 9,8 C 44 % 68 % 988,3 hPa 0,0 l/m 5,8 km/h (2 Bft)
16.01.2008 02:12 17,5 C 9,8 C 44 % 69 % 988,3 hPa 0,0 l/m 4,0 km/h (1 Bft)
16.01.2008 02:14 17,5 C 9,8 C 44 % 69 % 988,3 hPa 0,0 l/m 13,7 km/h (3 Bft)
16.01.2008 02:16 17,5 C 9,8 C 44 % 69 % 988,3 hPa 0,0 l/m 7,6 km/h (2 Bft)
16.01.2008 02:18 17,5 C 9,8 C 44 % 69 % 988,3 hPa 0,0 l/m 12,2 km/h (2 Bft)
16.01.2008 02:20 17,5 C 9,7 C 44 % 69 % 988,3 hPa 0,0 l/m 11,2 km/h (2 Bft)
16.01.2008 02:22 17,5 C 9,6 C 44 % 69 % 988,3 hPa 0,0 l/m 9,4 km/h (2 Bft)
16.01.2008 02:24 17,5 C 9,6 C 44 % 69 % 988,3 hPa 0,0 l/m 9,4 km/h (2 Bft)
16.01.2008 02:26 17,5 C 9,6 C 44 % 69 % 988,3 hPa 0,0 l/m 6,1 km/h (2 Bft)
16.01.2008 02:28 17,5 C 9,6 C 44 % 69 % 988,3 hPa 0,0 l/m 0,7 km/h (0 Bft)
16.01.2008 02:30 17,5 C 9,6 C 44 % 69 % 988,3 hPa 0,0 l/m 9,0 km/h (2 Bft)
16.01.2008 02:32 17,5 C 9,6 C 44 % 69 % 988,3 hPa 0,0 l/m 10,1 km/h (2 Bft)
16.01.2008 02:34 17,5 C 9,6 C 44 % 70 % 988,3 hPa 0,0 l/m 0,0 km/h (0 Bft)
16.01.2008 02:36 17,5 C 9,6 C 44 % 70 % 988,3 hPa 0,0 l/m 4,7 km/h (1 Bft)
16.01.2008 02:38 17,5 C 9,6 C 44 % 70 % 988,3 hPa 0,0 l/m 5,0 km/h (1 Bft)
16.01.2008 02:40 17,5 C 9,6 C 44 % 70 % 988,3 hPa 0,0 l/m 5,0 km/h (1 Bft)
16.01.2008 02:42 17,5 C 9,6 C 44 % 70 % 988,3 hPa 0,0 l/m 1,1 km/h (1 Bft)
16.01.2008 02:44 17,5 C 9,5 C 44 % 70 % 988,3 hPa 0,0 l/m 9,4 km/h (2 Bft)
16.01.2008 02:46 17,5 C 9,5 C 44 % 70 % 989,3 hPa 0,0 l/m 5,8 km/h (2 Bft)
16.01.2008 02:48 17,5 C 9,5 C 45 % 70 % 988,3 hPa 0,0 l/m 6,5 km/h (2 Bft)
16.01.2008 02:50 17,5 C 9,5 C 45 % 70 % 989,3 hPa 0,0 l/m 0,0 km/h (0 Bft)
16.01.2008 02:52 17,5 C 9,5 C 45 % 70 % 989,3 hPa 0,0 l/m 9,7 km/h (2 Bft)
16.01.2008 02:54 17,5 C 9,5 C 45 % 70 % 989,3 hPa 0,0 l/m 10,4 km/h (2 Bft)
16.01.2008 02:56 17,4 C 9,5 C 45 % 70 % 989,3 hPa 0,0 l/m 8,6 km/h (2 Bft)
16.01.2008 02:58 17,4 C 9,5 C 45 % 70 % 989,3 hPa 0,0 l/m 6,5 km/h (2 Bft)
16.01.2008 03:00 17,5 C 9,5 C 45 % 70 % 989,3 hPa 0,0 l/m 0,7 km/h (0 Bft)
16.01.2008 03:02 17,4 C 9,5 C 45 % 70 % 989,3 hPa 0,0 l/m 10,4 km/h (2 Bft)
16.01.2008 03:04 17,5 C 9,5 C 45 % 70 % 989,3 hPa 0,0 l/m 9,0 km/h (2 Bft)
16.01.2008 03:06 17,4 C 9,5 C 45 % 70 % 989,3 hPa 0,0 l/m 0,7 km/h (0 Bft)
16.01.2008 03:08 17,4 C 9,5 C 45 % 70 % 989,3 hPa 0,0 l/m 9,7 km/h (2 Bft)
16.01.2008 03:10 17,4 C 9,5 C 45 % 70 % 989,3 hPa 0,0 l/m 9,7 km/h (2 Bft)
16.01.2008 03:12 17,4 C 9,4 C 45 % 71 % 989,3 hPa 0,0 l/m 0,0 km/h (0 Bft)
16.01.2008 03:14 17,4 C 9,5 C 45 % 71 % 989,3 hPa 0,0 l/m 0,0 km/h (0 Bft)
16.01.2008 03:16 17,4 C 9,4 C 45 % 71 % 989,3 hPa 0,0 l/m 10,4 km/h (2 Bft)
16.01.2008 03:18 17,4 C 9,5 C 45 % 71 % 989,3 hPa 0,0 l/m 1,8 km/h (1 Bft)
16.01.2008 03:20 17,4 C 9,4 C 45 % 71 % 989,3 hPa 0,0 l/m 9,7 km/h (2 Bft)
16.01.2008 03:22 17,4 C 9,4 C 45 % 71 % 989,3 hPa 0,0 l/m 15,8 km/h (3 Bft)
16.01.2008 03:24 17,4 C 9,4 C 45 % 71 % 989,3 hPa 0,0 l/m 3,6 km/h (1 Bft)
16.01.2008 03:26 17,4 C 9,4 C 45 % 71 % 989,3 hPa 0,0 l/m 13,3 km/h (3 Bft)
16.01.2008 03:28 17,4 C 9,4 C 45 % 71 % 989,3 hPa 0,0 l/m 1,8 km/h (1 Bft)
16.01.2008 03:30 17,4 C 9,4 C 45 % 71 % 989,3 hPa 0,0 l/m 4,7 km/h (1 Bft)
16.01.2008 03:32 17,4 C 9,4 C 45 % 71 % 989,3 hPa 0,0 l/m 2,2 km/h (1 Bft)
16.01.2008 03:34 17,4 C 9,4 C 45 % 71 % 989,3 hPa 0,0 l/m 11,9 km/h (2 Bft)
16.01.2008 03:36 17,4 C 9,4 C 45 % 71 % 989,3 hPa 0,0 l/m 1,4 km/h (1 Bft)
16.01.2008 03:38 17,4 C 9,4 C 45 % 71 % 989,3 hPa 0,0 l/m 1,4 km/h (1 Bft)
16.01.2008 03:40 17,4 C 9,4 C 45 % 71 % 989,3 hPa 0,0 l/m 5,4 km/h (1 Bft)
16.01.2008 03:42 17,4 C 9,5 C 45 % 71 % 989,3 hPa 0,0 l/m 6,5 km/h (2 Bft)
16.01.2008 03:44 17,4 C 9,5 C 45 % 71 % 989,3 hPa 0,0 l/m 8,3 km/h (2 Bft)
16.01.2008 03:46 17,4 C 9,5 C 45 % 71 % 989,3 hPa 0,0 l/m 6,8 km/h (2 Bft)
16.01.2008 03:48 17,4 C 9,5 C 45 % 71 % 989,3 hPa 0,0 l/m 10,1 km/h (2 Bft)
16.01.2008 03:50 17,4 C 9,5 C 45 % 71 % 989,3 hPa 0,0 l/m 10,8 km/h (2 Bft)
16.01.2008 03:52 17,4 C 9,5 C 45 % 71 % 989,3 hPa 0,0 l/m 8,6 km/h (2 Bft)
16.01.2008 03:54 17,4 C 9,5 C 45 % 71 % 989,3 hPa 0,0 l/m 2,9 km/h (1 Bft)
16.01.2008 03:56 17,4 C 9,5 C 45 % 71 % 989,3 hPa 0,0 l/m 8,3 km/h (2 Bft)
16.01.2008 03:58 17,4 C 9,5 C 45 % 71 % 989,3 hPa 0,0 l/m 6,8 km/h (2 Bft)
16.01.2008 04:00 17,4 C 9,5 C 45 % 71 % 989,3 hPa 0,0 l/m 9,7 km/h (2 Bft)
16.01.2008 04:02 17,4 C 9,5 C 45 % 71 % 989,3 hPa 0,0 l/m 2,5 km/h (1 Bft)
16.01.2008 04:04 17,4 C 9,5 C 45 % 71 % 989,3 hPa 0,0 l/m 3,2 km/h (1 Bft)
16.01.2008 04:06 17,4 C 9,5 C 45 % 71 % 989,3 hPa 0,0 l/m 10,1 km/h (2 Bft)
16.01.2008 04:08 17,4 C 9,5 C 45 % 71 % 989,3 hPa 0,0 l/m 10,1 km/h (2 Bft)
16.01.2008 04:10 17,4 C 9,5 C 45 % 71 % 989,3 hPa 0,0 l/m 5,8 km/h (2 Bft)
16.01.2008 04:12 17,4 C 9,5 C 45 % 71 % 989,3 hPa 0,0 l/m 0,0 km/h (0 Bft)
16.01.2008 04:14 17,4 C 9,5 C 45 % 71 % 989,3 hPa 0,0 l/m 6,8 km/h (2 Bft)
16.01.2008 04:16 17,4 C 9,5 C 45 % 71 % 989,3 hPa 0,0 l/m 0,0 km/h (0 Bft)
16.01.2008 04:18 17,4 C 9,5 C 45 % 71 % 989,3 hPa 0,0 l/m 12,2 km/h (2 Bft)
16.01.2008 04:20 17,4 C 9,5 C 45 % 71 % 989,3 hPa 0,0 l/m 0,7 km/h (0 Bft)
16.01.2008 04:22 17,4 C 9,5 C 45 % 71 % 989,3 hPa 0,0 l/m 9,4 km/h (2 Bft)
16.01.2008 04:24 17,4 C 9,5 C 45 % 71 % 989,3 hPa 0,0 l/m 5,0 km/h (1 Bft)
16.01.2008 04:26 17,4 C 9,5 C 45 % 71 % 989,3 hPa 0,0 l/m 5,0 km/h (1 Bft)
16.01.2008 04:28 17,4 C 9,5 C 45 % 71 % 989,3 hPa 0,0 l/m 14,0 km/h (3 Bft)
16.01.2008 04:30 17,4 C 9,5 C 45 % 71 % 989,3 hPa 0,0 l/m 0,0 km/h (0 Bft)
16.01.2008 04:32 17,4 C 9,5 C 45 % 71 % 990,3 hPa 0,0 l/m 9,4 km/h (2 Bft)
16.01.2008 04:34 17,4 C 9,5 C 45 % 71 % 990,3 hPa 0,0 l/m 8,6 km/h (2 Bft)
16.01.2008 04:36 17,4 C 9,5 C 45 % 71 % 990,3 hPa 0,0 l/m 8,6 km/h (2 Bft)
16.01.2008 04:38 17,4 C 9,5 C 45 % 71 % 990,3 hPa 0,0 l/m 6,8 km/h (2 Bft)
16.01.2008 04:40 17,4 C 9,5 C 45 % 71 % 990,3 hPa 0,0 l/m 9,4 km/h (2 Bft)
16.01.2008 04:42 17,4 C 9,5 C 45 % 71 % 990,3 hPa 0,0 l/m 6,8 km/h (2 Bft)
16.01.2008 04:44 17,4 C 9,5 C 45 % 71 % 990,3 hPa 0,0 l/m 4,7 km/h (1 Bft)
16.01.2008 04:46 17,4 C 9,5 C 45 % 71 % 990,3 hPa 0,0 l/m 6,8 km/h (2 Bft)
16.01.2008 04:48 17,4 C 9,6 C 45 % 71 % 990,3 hPa 0,0 l/m 7,2 km/h (2 Bft)
16.01.2008 04:50 17,4 C 9,6 C 45 % 71 % 990,3 hPa 0,0 l/m 5,0 km/h (1 Bft)
16.01.2008 04:52 17,4 C 9,6 C 45 % 71 % 990,3 hPa 0,0 l/m 4,7 km/h (1 Bft)
16.01.2008 04:54 17,4 C 9,6 C 45 % 71 % 990,3 hPa 0,0 l/m 6,1 km/h (2 Bft)
16.01.2008 04:56 17,4 C 9,6 C 45 % 71 % 990,3 hPa 0,0 l/m 0,0 km/h (0 Bft)
16.01.2008 04:58 17,4 C 9,6 C 45 % 71 % 990,3 hPa 0,0 l/m 12,2 km/h (2 Bft)
16.01.2008 05:00 17,4 C 9,5 C 45 % 71 % 990,3 hPa 0,0 l/m 0,0 km/h (0 Bft)
16.01.2008 05:02 17,3 C 9,5 C 45 % 71 % 990,3 hPa 0,0 l/m 7,2 km/h (2 Bft)
16.01.2008 05:04 17,4 C 9,5 C 45 % 71 % 990,3 hPa 0,0 l/m 4,7 km/h (1 Bft)
16.01.2008 05:06 17,4 C 9,5 C 45 % 71 % 990,3 hPa 0,0 l/m 4,7 km/h (1 Bft)
16.01.2008 05:08 17,3 C 9,5 C 45 % 72 % 990,3 hPa 0,0 l/m 9,0 km/h (2 Bft)
16.01.2008 05:10 17,4 C 9,5 C 45 % 72 % 990,3 hPa 0,0 l/m 0,0 km/h (0 Bft)
16.01.2008 05:12 17,4 C 9,5 C 45 % 72 % 990,3 hPa 0,0 l/m 10,8 km/h (2 Bft)
16.01.2008 05:14 17,4 C 9,4 C 45 % 72 % 990,3 hPa 0,0 l/m 7,9 km/h (2 Bft)
16.01.2008 05:16 17,4 C 9,4 C 45 % 72 % 990,3 hPa 0,0 l/m 0,0 km/h (0 Bft)
16.01.2008 05:18 17,3 C 9,4 C 45 % 72 % 990,3 hPa 0,0 l/m 0,0 km/h (0 Bft)
16.01.2008 05:20 17,3 C 9,4 C 45 % 72 % 990,3 hPa 0,0 l/m 6,5 km/h (2 Bft)
16.01.2008 05:22 17,3 C 9,3 C 46 % 72 % 990,3 hPa 0,0 l/m 10,4 km/h (2 Bft)
16.01.2008 05:24 17,3 C 9,3 C 46 % 72 % 990,3 hPa 0,0 l/m 6,1 km/h (2 Bft)
16.01.2008 05:26 17,3 C 9,3 C 46 % 72 % 990,3 hPa 0,0 l/m 0,7 km/h (0 Bft)
16.01.2008 05:28 17,4 C 9,3 C 46 % 72 % 990,3 hPa 0,0 l/m 5,0 km/h (1 Bft)
16.01.2008 05:30 17,3 C 9,3 C 45 % 72 % 990,3 hPa 0,0 l/m 1,4 km/h (1 Bft)
16.01.2008 05:32 17,4 C 9,3 C 46 % 72 % 990,3 hPa 0,0 l/m 2,9 km/h (1 Bft)
16.01.2008 05:34 17,3 C 9,3 C 46 % 72 % 990,3 hPa 0,0 l/m 5,8 km/h (2 Bft)
16.01.2008 05:36 17,3 C 9,3 C 46 % 72 % 990,3 hPa 0,0 l/m 5,8 km/h (2 Bft)
16.01.2008 05:38 17,3 C 9,3 C 46 % 72 % 990,3 hPa 0,0 l/m 4,3 km/h (1 Bft)
16.01.2008 05:40 17,3 C 9,3 C 46 % 72 % 990,3 hPa 0,0 l/m 0,0 km/h (0 Bft)
16.01.2008 05:42 17,4 C 9,3 C 46 % 72 % 990,3 hPa 0,0 l/m 12,6 km/h (3 Bft)
16.01.2008 05:44 17,3 C 9,3 C 46 % 72 % 990,3 hPa 0,0 l/m 6,5 km/h (2 Bft)
16.01.2008 05:46 17,3 C 9,3 C 46 % 72 % 990,3 hPa 0,0 l/m 7,6 km/h (2 Bft)
16.01.2008 05:48 17,3 C 9,3 C 46 % 72 % 990,3 hPa 0,0 l/m 7,6 km/h (2 Bft)
16.01.2008 05:50 17,3 C 9,3 C 46 % 72 % 990,3 hPa 0,0 l/m 10,4 km/h (2 Bft)
16.01.2008 05:52 17,3 C 9,3 C 46 % 72 % 990,3 hPa 0,0 l/m 0,0 km/h (0 Bft)
16.01.2008 05:54 17,3 C 9,3 C 46 % 72 % 990,3 hPa 0,0 l/m 5,0 km/h (1 Bft)
16.01.2008 05:56 17,3 C 9,3 C 46 % 73 % 990,3 hPa 0,0 l/m 10,1 km/h (2 Bft)
16.01.2008 05:58 17,3 C 9,3 C 46 % 73 % 990,3 hPa 0,0 l/m 7,6 km/h (2 Bft)
16.01.2008 06:00 17,3 C 9,3 C 46 % 73 % 990,3 hPa 0,0 l/m 14,0 km/h (3 Bft)
16.01.2008 06:02 17,3 C 9,3 C 46 % 73 % 990,3 hPa 0,0 l/m 9,0 km/h (2 Bft)
16.01.2008 06:04 17,3 C 9,2 C 46 % 73 % 990,3 hPa 0,0 l/m 4,7 km/h (1 Bft)
16.01.2008 06:06 17,3 C 9,2 C 46 % 73 % 990,3 hPa 0,0 l/m 4,7 km/h (1 Bft)
16.01.2008 06:08 17,3 C 9,1 C 46 % 73 % 990,3 hPa 0,0 l/m 0,0 km/h (0 Bft)
16.01.2008 06:10 17,3 C 9,0 C 46 % 73 % 990,3 hPa 0,0 l/m 13,7 km/h (3 Bft)
16.01.2008 06:12 17,3 C 8,9 C 46 % 73 % 990,3 hPa 0,0 l/m 2,9 km/h (1 Bft)
16.01.2008 06:14 17,3 C 8,8 C 46 % 74 % 990,3 hPa 0,0 l/m 8,3 km/h (2 Bft)
16.01.2008 06:16 17,3 C 8,7 C 46 % 74 % 990,3 hPa 0,0 l/m 9,4 km/h (2 Bft)
16.01.2008 06:18 17,3 C 8,6 C 46 % 75 % 990,3 hPa 0,0 l/m 0,0 km/h (0 Bft)
16.01.2008 06:20 17,3 C 8,5 C 46 % 75 % 990,3 hPa 0,0 l/m 0,0 km/h (0 Bft)
16.01.2008 06:22 17,3 C 8,4 C 46 % 75 % 990,3 hPa 0,0 l/m 0,0 km/h (0 Bft)
16.01.2008 06:24 17,3 C 8,3 C 46 % 76 % 991,3 hPa 0,0 l/m 1,8 km/h (1 Bft)
16.01.2008 06:26 17,4 C 8,2 C 46 % 76 % 990,3 hPa 0,0 l/m 0,0 km/h (0 Bft)
16.01.2008 06:28 17,4 C 8,2 C 46 % 76 % 990,3 hPa 0,0 l/m 2,5 km/h (1 Bft)
16.01.2008 06:30 17,4 C 8,1 C 46 % 76 % 991,3 hPa 0,0 l/m 5,0 km/h (1 Bft)
16.01.2008 06:32 17,4 C 8,1 C 46 % 76 % 991,3 hPa 0,0 l/m 7,6 km/h (2 Bft)
16.01.2008 06:34 17,5 C 7,9 C 46 % 77 % 991,3 hPa 0,0 l/m 4,3 km/h (1 Bft)
16.01.2008 06:36 17,5 C 7,9 C 46 % 77 % 991,3 hPa 0,0 l/m 6,1 km/h (2 Bft)
16.01.2008 06:38 17,5 C 7,9 C 46 % 77 % 990,3 hPa 0,0 l/m 6,1 km/h (2 Bft)
16.01.2008 06:40 17,5 C 7,9 C 46 % 77 % 991,3 hPa 0,0 l/m 0,0 km/h (0 Bft)
16.01.2008 06:42 17,6 C 7,8 C 46 % 78 % 990,3 hPa 0,0 l/m 2,5 km/h (1 Bft)
16.01.2008 06:44 17,6 C 7,8 C 46 % 78 % 991,3 hPa 0,0 l/m 5,0 km/h (1 Bft)
16.01.2008 06:46 17,6 C 7,8 C 46 % 78 % 991,3 hPa 0,0 l/m 0,0 km/h (0 Bft)
16.01.2008 06:48 17,6 C 7,8 C 46 % 79 % 991,3 hPa 0,0 l/m 0,0 km/h (0 Bft)
16.01.2008 06:50 17,6 C 7,7 C 46 % 79 % 991,3 hPa 0,0 l/m 0,0 km/h (0 Bft)
16.01.2008 06:52 17,6 C 7,6 C 46 % 79 % 991,3 hPa 0,0 l/m 0,0 km/h (0 Bft)
16.01.2008 06:54 17,6 C 7,6 C 46 % 79 % 991,3 hPa 0,0 l/m 0,0 km/h (0 Bft)
16.01.2008 06:56 17,6 C 7,6 C 46 % 79 % 991,3 hPa 0,0 l/m 0,0 km/h (0 Bft)
16.01.2008 06:58 17,7 C 7,6 C 46 % 79 % 991,3 hPa 0,0 l/m 0,0 km/h (0 Bft)
16.01.2008 07:00 17,7 C 7,5 C 46 % 79 % 991,3 hPa 0,0 l/m 4,7 km/h (1 Bft)
16.01.2008 07:02 17,7 C 7,5 C 46 % 79 % 991,3 hPa 0,0 l/m 0,0 km/h (0 Bft)
16.01.2008 07:04 17,7 C 7,5 C 46 % 80 % 991,3 hPa 0,0 l/m 0,0 km/h (0 Bft)
16.01.2008 07:06 17,7 C 7,4 C 46 % 80 % 991,3 hPa 0,0 l/m 0,0 km/h (0 Bft)
16.01.2008 07:08 17,7 C 7,4 C 46 % 80 % 991,3 hPa 0,0 l/m 0,0 km/h (0 Bft)
16.01.2008 07:10 17,7 C 7,4 C 46 % 80 % 991,3 hPa 0,0 l/m 6,8 km/h (2 Bft)
16.01.2008 07:12 17,7 C 7,4 C 46 % 80 % 991,3 hPa 0,0 l/m 3,6 km/h (1 Bft)
16.01.2008 07:14 17,7 C 7,4 C 46 % 80 % 991,3 hPa 0,0 l/m 9,4 km/h (2 Bft)
16.01.2008 07:16 17,8 C 7,4 C 46 % 81 % 991,3 hPa 0,0 l/m 1,1 km/h (1 Bft)
16.01.2008 07:18 17,8 C 7,4 C 46 % 81 % 991,3 hPa 0,0 l/m 0,0 km/h (0 Bft)
16.01.2008 07:20 17,8 C 7,4 C 46 % 81 % 991,3 hPa 0,0 l/m 0,0 km/h (0 Bft)
16.01.2008 07:22 17,8 C 7,4 C 46 % 81 % 991,3 hPa 0,0 l/m 3,6 km/h (1 Bft)
16.01.2008 07:24 17,8 C 7,4 C 46 % 81 % 991,3 hPa 0,0 l/m 1,1 km/h (1 Bft)
16.01.2008 07:26 17,9 C 7,4 C 46 % 81 % 991,3 hPa 0,0 l/m 9,0 km/h (2 Bft)
16.01.2008 07:28 17,8 C 7,4 C 46 % 81 % 991,3 hPa 0,0 l/m 5,4 km/h (1 Bft)
16.01.2008 07:30 17,9 C 7,4 C 46 % 81 % 991,3 hPa 0,0 l/m 0,0 km/h (0 Bft)
16.01.2008 07:32 17,8 C 7,4 C 46 % 81 % 991,3 hPa 0,5 l/m 0,0 km/h (0 Bft)
16.01.2008 07:34 17,8 C 7,4 C 46 % 81 % 991,3 hPa 0,0 l/m 0,0 km/h (0 Bft)
16.01.2008 07:36 17,8 C 7,4 C 46 % 81 % 991,3 hPa 0,0 l/m 4,7 km/h (1 Bft)
16.01.2008 07:38 17,9 C 7,4 C 46 % 81 % 991,3 hPa 0,0 l/m 4,7 km/h (1 Bft)
16.01.2008 07:40 17,9 C 7,4 C 46 % 81 % 991,3 hPa 0,0 l/m 0,0 km/h (0 Bft)
16.01.2008 07:42 17,9 C 7,3 C 46 % 81 % 991,3 hPa 0,0 l/m 0,0 km/h (0 Bft)
16.01.2008 07:44 17,9 C 7,3 C 46 % 81 % 991,3 hPa 0,0 l/m 4,0 km/h (1 Bft)
16.01.2008 07:46 17,8 C 7,3 C 46 % 81 % 991,3 hPa 0,0 l/m 0,0 km/h (0 Bft)
16.01.2008 07:48 17,9 C 7,3 C 46 % 81 % 991,3 hPa 0,0 l/m 2,5 km/h (1 Bft)
16.01.2008 07:50 17,9 C 7,3 C 46 % 81 % 991,3 hPa 0,0 l/m 5,0 km/h (1 Bft)
16.01.2008 07:52 17,9 C 7,3 C 46 % 81 % 991,3 hPa 0,0 l/m 0,0 km/h (0 Bft)
16.01.2008 07:54 17,9 C 7,2 C 46 % 82 % 991,3 hPa 0,0 l/m 1,8 km/h (1 Bft)
16.01.2008 07:56 17,9 C 7,3 C 46 % 82 % 991,3 hPa 0,0 l/m 0,0 km/h (0 Bft)
16.01.2008 07:58 18,0 C 7,3 C 47 % 82 % 992,3 hPa 0,0 l/m 0,0 km/h (0 Bft)
16.01.2008 08:00 18,0 C 7,3 C 47 % 82 % 992,3 hPa 0,0 l/m 0,0 km/h (0 Bft)
16.01.2008 08:02 18,0 C 7,3 C 47 % 82 % 991,3 hPa 0,0 l/m 0,0 km/h (0 Bft)
16.01.2008 08:04 18,0 C 7,2 C 47 % 82 % 992,3 hPa 0,0 l/m 2,5 km/h (1 Bft)
16.01.2008 08:06 18,0 C 7,2 C 47 % 82 % 992,3 hPa 0,0 l/m 0,0 km/h (0 Bft)
16.01.2008 08:08 18,0 C 7,2 C 47 % 82 % 992,3 hPa 0,0 l/m 0,0 km/h (0 Bft)
16.01.2008 08:10 18,0 C 7,2 C 47 % 82 % 992,3 hPa 0,0 l/m 0,0 km/h (0 Bft)
16.01.2008 08:12 18,0 C 7,2 C 47 % 82 % 991,3 hPa 0,0 l/m 0,0 km/h (0 Bft)
16.01.2008 08:14 18,0 C 7,2 C 47 % 82 % 991,3 hPa 0,0 l/m 0,0 km/h (0 Bft)
16.01.2008 08:16 18,0 C 7,2 C 47 % 82 % 991,3 hPa 0,0 l/m 0,0 km/h (0 Bft)
16.01.2008 08:18 18,0 C 7,2 C 47 % 82 % 992,3 hPa 0,0 l/m 0,0 km/h (0 Bft)
16.01.2008 08:20 18,0 C 7,2 C 47 % 82 % 992,3 hPa 0,0 l/m 0,0 km/h (0 Bft)
16.01.2008 08:22 18,0 C 7,2 C 47 % 82 % 992,3 hPa 0,0 l/m 0,0 km/h (0 Bft)
16.01.2008 08:24 18,0 C 7,2 C 47 % 82 % 992,3 hPa 0,0 l/m 0,0 km/h (0 Bft)
16.01.2008 08:26 18,0 C 7,2 C 47 % 82 % 992,3 hPa 0,0 l/m 0,0 km/h (0 Bft)
16.01.2008 08:28 18,0 C 7,2 C 47 % 82 % 992,3 hPa 0,0 l/m 1,1 km/h (1 Bft)
16.01.2008 08:30 18,0 C 7,2 C 47 % 82 % 992,3 hPa 0,0 l/m 0,0 km/h (0 Bft)
16.01.2008 08:32 18,0 C 7,2 C 47 % 82 % 992,3 hPa 0,0 l/m 5,4 km/h (1 Bft)
16.01.2008 08:34 18,0 C 7,2 C 47 % 82 % 992,3 hPa 0,0 l/m 4,0 km/h (1 Bft)
16.01.2008 08:36 17,9 C 7,2 C 47 % 82 % 992,3 hPa 0,0 l/m 0,0 km/h (0 Bft)
16.01.2008 08:38 17,9 C 7,2 C 47 % 82 % 992,3 hPa 0,0 l/m 0,0 km/h (0 Bft)
16.01.2008 08:40 17,9 C 7,2 C 47 % 82 % 992,3 hPa 0,0 l/m 5,8 km/h (2 Bft)
16.01.2008 08:42 17,9 C 7,3 C 47 % 82 % 992,3 hPa 0,0 l/m 0,0 km/h (0 Bft)
16.01.2008 08:44 17,9 C 7,3 C 47 % 82 % 992,3 hPa 0,0 l/m 0,0 km/h (0 Bft)
16.01.2008 08:46 17,9 C 7,3 C 47 % 82 % 992,3 hPa 0,0 l/m 0,0 km/h (0 Bft)
16.01.2008 08:48 17,9 C 7,3 C 47 % 82 % 992,3 hPa 0,0 l/m 2,2 km/h (1 Bft)
16.01.2008 08:50 17,9 C 7,3 C 47 % 82 % 992,3 hPa 0,0 l/m 0,0 km/h (0 Bft)
16.01.2008 08:52 17,9 C 7,3 C 47 % 82 % 992,3 hPa 0,0 l/m 1,1 km/h (1 Bft)
16.01.2008 08:54 17,8 C 7,3 C 47 % 82 % 992,3 hPa 0,0 l/m 0,0 km/h (0 Bft)
16.01.2008 08:56 17,8 C 7,3 C 47 % 82 % 992,3 hPa 0,0 l/m 0,0 km/h (0 Bft)
16.01.2008 08:58 17,8 C 7,3 C 47 % 81 % 992,3 hPa 0,0 l/m 0,0 km/h (0 Bft)
16.01.2008 09:00 17,8 C 7,3 C 47 % 81 % 992,3 hPa 0,0 l/m 0,0 km/h (0 Bft)
16.01.2008 09:02 17,8 C 7,3 C 47 % 81 % 992,3 hPa 0,0 l/m 6,8 km/h (2 Bft)
16.01.2008 09:04 17,8 C 7,3 C 47 % 81 % 992,3 hPa 0,0 l/m 3,6 km/h (1 Bft)
16.01.2008 09:06 17,8 C 7,3 C 47 % 81 % 992,3 hPa 0,0 l/m 2,5 km/h (1 Bft)
16.01.2008 09:08 17,8 C 7,3 C 47 % 81 % 992,3 hPa 0,0 l/m 2,5 km/h (1 Bft)
16.01.2008 09:10 17,8 C 7,3 C 47 % 81 % 992,3 hPa 0,0 l/m 0,0 km/h (0 Bft)
16.01.2008 09:12 17,8 C 7,3 C 47 % 81 % 993,3 hPa 0,0 l/m 0,0 km/h (0 Bft)
16.01.2008 09:14 17,8 C 7,4 C 47 % 81 % 993,3 hPa 0,0 l/m 0,0 km/h (0 Bft)
16.01.2008 09:16 17,8 C 7,4 C 47 % 81 % 992,3 hPa 0,0 l/m 4,7 km/h (1 Bft)
16.01.2008 09:18 17,8 C 7,4 C 47 % 81 % 993,3 hPa 0,0 l/m 1,1 km/h (1 Bft)
16.01.2008 09:20 17,8 C 7,4 C 47 % 81 % 993,3 hPa 0,0 l/m 0,0 km/h (0 Bft)
16.01.2008 09:22 17,8 C 7,4 C 47 % 81 % 993,3 hPa 0,0 l/m 0,7 km/h (0 Bft)
16.01.2008 09:24 17,8 C 7,4 C 47 % 81 % 993,3 hPa 0,0 l/m 10,4 km/h (2 Bft)
16.01.2008 09:26 17,8 C 7,4 C 47 % 81 % 993,3 hPa 0,0 l/m 0,0 km/h (0 Bft)
16.01.2008 09:28 17,8 C 7,4 C 47 % 81 % 993,3 hPa 0,0 l/m 0,0 km/h (0 Bft)
16.01.2008 09:30 17,7 C 7,4 C 47 % 81 % 993,3 hPa 0,0 l/m 8,3 km/h (2 Bft)
16.01.2008 09:32 17,7 C 7,4 C 47 % 81 % 993,3 hPa 0,0 l/m 2,2 km/h (1 Bft)
16.01.2008 09:34 17,7 C 7,4 C 47 % 81 % 993,3 hPa 0,0 l/m 1,1 km/h (1 Bft)
16.01.2008 09:36 17,7 C 7,5 C 47 % 81 % 993,3 hPa 0,0 l/m 0,0 km/h (0 Bft)
16.01.2008 09:38 17,7 C 7,5 C 47 % 81 % 993,3 hPa 0,0 l/m 0,0 km/h (0 Bft)
16.01.2008 09:40 17,7 C 7,5 C 47 % 81 % 993,3 hPa 0,0 l/m 2,2 km/h (1 Bft)
16.01.2008 09:42 17,7 C 7,5 C 47 % 81 % 993,3 hPa 0,0 l/m 0,0 km/h (0 Bft)
16.01.2008 09:44 17,7 C 7,5 C 47 % 81 % 993,3 hPa 0,0 l/m 0,0 km/h (0 Bft)
16.01.2008 09:46 17,7 C 7,5 C 47 % 81 % 993,3 hPa 0,0 l/m 7,2 km/h (2 Bft)
16.01.2008 09:48 17,7 C 7,5 C 47 % 81 % 993,3 hPa 0,0 l/m 0,0 km/h (0 Bft)
16.01.2008 09:50 17,7 C 7,5 C 47 % 81 % 993,3 hPa 0,0 l/m 0,0 km/h (0 Bft)
16.01.2008 09:52 17,7 C 7,5 C 47 % 81 % 993,3 hPa 0,0 l/m 1,4 km/h (1 Bft)
16.01.2008 09:54 17,7 C 7,5 C 47 % 81 % 993,3 hPa 0,0 l/m 0,0 km/h (0 Bft)
16.01.2008 09:56 17,7 C 7,5 C 47 % 81 % 993,3 hPa 0,0 l/m 7,9 km/h (2 Bft)
16.01.2008 09:58 17,7 C 7,5 C 47 % 81 % 993,3 hPa 0,0 l/m 0,0 km/h (0 Bft)
16.01.2008 10:00 17,7 C 7,5 C 47 % 81 % 993,3 hPa 0,0 l/m 0,4 km/h (0 Bft)
16.01.2008 10:02 17,7 C 7,5 C 47 % 81 % 993,3 hPa 0,0 l/m 0,0 km/h (0 Bft)
16.01.2008 10:04 17,7 C 7,5 C 47 % 81 % 993,3 hPa 0,0 l/m 0,0 km/h (0 Bft)
16.01.2008 10:06 17,7 C 7,5 C 47 % 81 % 993,3 hPa 0,0 l/m 0,0 km/h (0 Bft)
16.01.2008 10:08 17,7 C 7,5 C 47 % 81 % 993,3 hPa 0,0 l/m 0,0 km/h (0 Bft)
16.01.2008 10:10 17,7 C 7,5 C 47 % 81 % 993,3 hPa 0,0 l/m 2,9 km/h (1 Bft)
16.01.2008 10:12 17,6 C 7,5 C 47 % 81 % 993,3 hPa 0,0 l/m 0,0 km/h (0 Bft)
16.01.2008 10:14 17,7 C 7,5 C 47 % 81 % 993,3 hPa 0,0 l/m 2,9 km/h (1 Bft)
16.01.2008 10:16 17,6 C 7,6 C 47 % 81 % 993,3 hPa 0,0 l/m 0,0 km/h (0 Bft)
16.01.2008 10:18 17,6 C 7,6 C 47 % 81 % 993,3 hPa 0,0 l/m 0,0 km/h (0 Bft)
16.01.2008 10:20 17,6 C 7,5 C 47 % 81 % 993,3 hPa 0,0 l/m 5,0 km/h (1 Bft)
16.01.2008 10:22 17,6 C 7,5 C 47 % 81 % 993,3 hPa 0,0 l/m 2,2 km/h (1 Bft)
16.01.2008 10:24 17,6 C 7,5 C 47 % 81 % 993,3 hPa 0,0 l/m 2,2 km/h (1 Bft)
16.01.2008 10:26 17,6 C 7,5 C 47 % 81 % 993,3 hPa 0,0 l/m 7,2 km/h (2 Bft)
16.01.2008 10:28 17,6 C 7,5 C 47 % 81 % 994,3 hPa 0,0 l/m 7,9 km/h (2 Bft)
16.01.2008 10:30 17,6 C 7,5 C 47 % 81 % 994,3 hPa 0,0 l/m 5,8 km/h (2 Bft)
16.01.2008 10:32 17,6 C 7,5 C 47 % 81 % 994,3 hPa 0,0 l/m 8,3 km/h (2 Bft)
16.01.2008 10:34 17,6 C 7,5 C 47 % 81 % 994,3 hPa 0,0 l/m 0,0 km/h (0 Bft)
16.01.2008 10:36 17,6 C 7,6 C 47 % 81 % 994,3 hPa 0,0 l/m 2,9 km/h (1 Bft)
16.01.2008 10:38 17,6 C 7,6 C 47 % 81 % 994,3 hPa 0,0 l/m 7,6 km/h (2 Bft)
16.01.2008 10:40 17,6 C 7,6 C 47 % 81 % 994,3 hPa 0,0 l/m 7,6 km/h (2 Bft)
16.01.2008 10:42 17,6 C 7,6 C 47 % 81 % 994,3 hPa 0,0 l/m 2,2 km/h (1 Bft)
16.01.2008 10:44 17,6 C 7,6 C 47 % 81 % 994,3 hPa 0,0 l/m 0,0 km/h (0 Bft)
16.01.2008 10:46 17,6 C 7,6 C 47 % 81 % 994,3 hPa 0,0 l/m 3,2 km/h (1 Bft)
16.01.2008 10:48 17,6 C 7,6 C 47 % 81 % 994,3 hPa 0,0 l/m 0,0 km/h (0 Bft)
16.01.2008 10:50 17,6 C 7,6 C 47 % 81 % 994,3 hPa 0,0 l/m 0,0 km/h (0 Bft)
16.01.2008 10:52 17,6 C 7,6 C 47 % 81 % 994,3 hPa 0,0 l/m 5,0 km/h (1 Bft)
16.01.2008 10:54 17,6 C 7,6 C 47 % 81 % 994,3 hPa 0,0 l/m 0,0 km/h (0 Bft)
16.01.2008 10:56 17,6 C 7,6 C 47 % 80 % 994,3 hPa 0,0 l/m 8,3 km/h (2 Bft)
16.01.2008 10:58 17,6 C 7,6 C 47 % 80 % 994,3 hPa 0,0 l/m 0,0 km/h (0 Bft)
16.01.2008 11:00 17,6 C 7,6 C 47 % 80 % 994,3 hPa 0,0 l/m 0,0 km/h (0 Bft)
16.01.2008 11:02 17,6 C 7,8 C 47 % 80 % 994,3 hPa 0,0 l/m 2,2 km/h (1 Bft)
16.01.2008 11:04 17,6 C 7,8 C 47 % 80 % 994,3 hPa 0,0 l/m 11,2 km/h (2 Bft)
16.01.2008 11:06 17,6 C 7,8 C 47 % 80 % 994,3 hPa 0,0 l/m 0,0 km/h (0 Bft)
16.01.2008 11:08 17,6 C 7,8 C 47 % 80 % 994,3 hPa 0,0 l/m 0,0 km/h (0 Bft)
16.01.2008 11:10 17,6 C 7,8 C 47 % 80 % 994,3 hPa 0,0 l/m 0,0 km/h (0 Bft)
16.01.2008 11:12 17,6 C 7,8 C 47 % 80 % 994,3 hPa 0,0 l/m 0,0 km/h (0 Bft)
16.01.2008 11:14 17,6 C 7,8 C 47 % 80 % 994,3 hPa 0,0 l/m 6,5 km/h (2 Bft)
16.01.2008 11:16 17,6 C 7,8 C 47 % 79 % 994,3 hPa 0,0 l/m 5,4 km/h (1 Bft)
16.01.2008 11:18 17,6 C 7,8 C 47 % 79 % 994,3 hPa 0,0 l/m 2,9 km/h (1 Bft)
16.01.2008 11:20 17,6 C 7,8 C 47 % 79 % 994,3 hPa 0,0 l/m 2,5 km/h (1 Bft)
16.01.2008 11:22 17,6 C 7,9 C 47 % 79 % 994,3 hPa 0,0 l/m 1,8 km/h (1 Bft)
16.01.2008 11:24 17,6 C 7,9 C 47 % 78 % 994,3 hPa 0,0 l/m 2,2 km/h (1 Bft)
16.01.2008 11:26 17,6 C 7,9 C 47 % 78 % 994,3 hPa 0,0 l/m 8,6 km/h (2 Bft)
16.01.2008 11:28 17,6 C 7,9 C 47 % 78 % 994,3 hPa 0,0 l/m 14,8 km/h (3 Bft)
16.01.2008 11:30 17,6 C 7,9 C 47 % 78 % 994,3 hPa 0,0 l/m 3,6 km/h (1 Bft)
16.01.2008 11:32 17,6 C 8,1 C 47 % 78 % 994,3 hPa 0,0 l/m 9,0 km/h (2 Bft)
16.01.2008 11:34 17,6 C 8,1 C 47 % 77 % 994,3 hPa 0,0 l/m 17,3 km/h (3 Bft)
16.01.2008 11:36 17,6 C 8,2 C 47 % 77 % 995,3 hPa 0,0 l/m 3,6 km/h (1 Bft)
16.01.2008 11:38 17,6 C 8,2 C 47 % 76 % 995,3 hPa 0,0 l/m 5,8 km/h (2 Bft)
16.01.2008 11:40 17,6 C 8,2 C 47 % 76 % 995,3 hPa 0,0 l/m 5,8 km/h (2 Bft)
16.01.2008 11:42 17,6 C 8,3 C 47 % 76 % 995,3 hPa 0,0 l/m 8,3 km/h (2 Bft)
16.01.2008 11:44 17,6 C 8,3 C 47 % 76 % 995,3 hPa 0,0 l/m 10,8 km/h (2 Bft)
16.01.2008 11:46 17,6 C 8,3 C 47 % 76 % 995,3 hPa 0,0 l/m 8,3 km/h (2 Bft)
16.01.2008 11:48 17,6 C 8,4 C 47 % 76 % 995,3 hPa 0,0 l/m 4,0 km/h (1 Bft)
16.01.2008 11:50 17,6 C 8,4 C 47 % 76 % 995,3 hPa 0,0 l/m 0,0 km/h (0 Bft)
16.01.2008 11:52 17,6 C 8,4 C 47 % 76 % 995,3 hPa 0,0 l/m 0,0 km/h (0 Bft)
16.01.2008 11:54 17,6 C 8,3 C 47 % 76 % 995,3 hPa 0,0 l/m 0,0 km/h (0 Bft)
16.01.2008 11:56 17,6 C 8,4 C 47 % 76 % 995,3 hPa 0,0 l/m 8,6 km/h (2 Bft)
16.01.2008 11:58 17,6 C 8,4 C 47 % 75 % 995,3 hPa 0,0 l/m 10,8 km/h (2 Bft)
16.01.2008 12:00 17,6 C 8,4 C 47 % 75 % 995,3 hPa 0,0 l/m 7,2 km/h (2 Bft)
16.01.2008 12:02 17,5 C 8,4 C 47 % 75 % 995,3 hPa 0,0 l/m 9,7 km/h (2 Bft)
16.01.2008 12:04 17,5 C 8,5 C 47 % 75 % 995,3 hPa 0,0 l/m 6,5 km/h (2 Bft)
16.01.2008 12:06 17,6 C 8,5 C 47 % 75 % 995,3 hPa 0,0 l/m 4,3 km/h (1 Bft)
16.01.2008 12:08 17,6 C 8,6 C 47 % 75 % 995,3 hPa 0,0 l/m 2,2 km/h (1 Bft)
16.01.2008 12:10 17,6 C 8,6 C 47 % 75 % 995,3 hPa 0,0 l/m 2,2 km/h (1 Bft)
16.01.2008 12:12 17,5 C 8,6 C 47 % 75 % 995,3 hPa 0,0 l/m 0,0 km/h (0 Bft)
16.01.2008 12:14 17,5 C 8,6 C 47 % 75 % 995,3 hPa 0,0 l/m 0,0 km/h (0 Bft)
16.01.2008 12:16 17,5 C 8,6 C 47 % 75 % 995,3 hPa 0,0 l/m 6,8 km/h (2 Bft)
16.01.2008 12:18 17,5 C 8,6 C 47 % 75 % 995,3 hPa 0,0 l/m 2,2 km/h (1 Bft)
16.01.2008 12:20 17,5 C 8,6 C 47 % 75 % 995,3 hPa 0,0 l/m 9,4 km/h (2 Bft)
16.01.2008 12:22 17,5 C 8,6 C 47 % 75 % 995,3 hPa 0,0 l/m 0,0 km/h (0 Bft)
16.01.2008 12:24 17,5 C 8,5 C 47 % 74 % 995,3 hPa 0,0 l/m 10,8 km/h (2 Bft)
16.01.2008 12:26 17,5 C 8,5 C 47 % 74 % 996,3 hPa 0,0 l/m 3,2 km/h (1 Bft)
16.01.2008 12:28 17,5 C 8,5 C 47 % 74 % 996,3 hPa 0,0 l/m 3,2 km/h (1 Bft)
16.01.2008 12:30 17,5 C 8,5 C 47 % 74 % 996,3 hPa 0,0 l/m 5,8 km/h (2 Bft)
16.01.2008 12:32 17,5 C 8,4 C 47 % 74 % 996,3 hPa 0,0 l/m 10,8 km/h (2 Bft)
16.01.2008 12:34 17,5 C 8,5 C 47 % 74 % 996,3 hPa 0,0 l/m 0,0 km/h (0 Bft)
16.01.2008 12:36 17,5 C 8,4 C 47 % 74 % 996,3 hPa 0,0 l/m 8,3 km/h (2 Bft)
16.01.2008 12:38 17,5 C 8,4 C 47 % 74 % 996,3 hPa 0,0 l/m 11,5 km/h (2 Bft)
16.01.2008 12:40 17,5 C 8,4 C 47 % 74 % 996,3 hPa 0,0 l/m 11,5 km/h (2 Bft)
16.01.2008 12:42 17,5 C 8,4 C 47 % 74 % 996,3 hPa 0,0 l/m 5,0 km/h (1 Bft)
16.01.2008 12:44 17,5 C 8,3 C 47 % 74 % 996,3 hPa 0,0 l/m 12,2 km/h (2 Bft)
16.01.2008 12:46 17,5 C 8,3 C 47 % 74 % 996,3 hPa 0,0 l/m 9,7 km/h (2 Bft)
16.01.2008 12:48 17,5 C 8,3 C 47 % 74 % 996,3 hPa 0,0 l/m 9,7 km/h (2 Bft)
16.01.2008 12:50 17,5 C 8,3 C 47 % 75 % 996,3 hPa 0,0 l/m 0,0 km/h (0 Bft)
16.01.2008 12:52 17,5 C 8,3 C 47 % 75 % 996,3 hPa 0,0 l/m 8,6 km/h (2 Bft)
16.01.2008 12:54 17,5 C 8,3 C 47 % 75 % 996,3 hPa 0,0 l/m 23,4 km/h (4 Bft)
16.01.2008 12:56 17,5 C 8,2 C 47 % 75 % 996,3 hPa 0,0 l/m 12,2 km/h (2 Bft)
16.01.2008 12:58 17,5 C 8,2 C 47 % 75 % 996,3 hPa 0,0 l/m 0,0 km/h (0 Bft)
16.01.2008 13:00 17,5 C 8,2 C 47 % 75 % 996,3 hPa 0,0 l/m 0,0 km/h (0 Bft)
16.01.2008 13:02 17,4 C 8,2 C 47 % 75 % 996,3 hPa 0,0 l/m 10,8 km/h (2 Bft)
16.01.2008 13:04 17,5 C 8,1 C 47 % 75 % 996,3 hPa 0,0 l/m 2,2 km/h (1 Bft)
16.01.2008 13:06 17,4 C 8,1 C 47 % 75 % 996,3 hPa 0,0 l/m 5,8 km/h (2 Bft)
16.01.2008 13:08 17,4 C 8,1 C 47 % 75 % 996,3 hPa 0,0 l/m 2,2 km/h (1 Bft)
16.01.2008 13:10 17,4 C 8,1 C 47 % 75 % 996,3 hPa 0,0 l/m 2,2 km/h (1 Bft)
16.01.2008 13:12 17,4 C 8,1 C 47 % 75 % 996,3 hPa 0,0 l/m 0,0 km/h (0 Bft)
16.01.2008 13:14 17,4 C 8,1 C 47 % 75 % 996,3 hPa 0,0 l/m 12,2 km/h (2 Bft)
16.01.2008 13:16 17,4 C 8,1 C 47 % 75 % 996,3 hPa 0,0 l/m 7,9 km/h (2 Bft)
16.01.2008 13:18 17,4 C 8,1 C 47 % 75 % 996,3 hPa 0,0 l/m 2,2 km/h (1 Bft)
16.01.2008 13:20 17,4 C 8,1 C 47 % 75 % 996,3 hPa 0,0 l/m 10,8 km/h (2 Bft)
16.01.2008 13:22 17,4 C 8,1 C 47 % 75 % 996,3 hPa 0,0 l/m 2,9 km/h (1 Bft)
16.01.2008 13:24 17,4 C 8,1 C 47 % 75 % 996,3 hPa 0,0 l/m 0,0 km/h (0 Bft)
16.01.2008 13:26 17,4 C 8,1 C 47 % 75 % 996,3 hPa 0,0 l/m 11,2 km/h (2 Bft)
16.01.2008 13:28 17,4 C 8,1 C 47 % 75 % 996,3 hPa 0,0 l/m 9,0 km/h (2 Bft)
16.01.2008 13:30 17,4 C 8,1 C 47 % 75 % 996,3 hPa 0,0 l/m 5,8 km/h (2 Bft)
16.01.2008 13:32 17,4 C 8,1 C 47 % 75 % 996,3 hPa 0,0 l/m 6,5 km/h (2 Bft)
16.01.2008 13:34 17,4 C 8,1 C 47 % 74 % 996,3 hPa 0,0 l/m 10,4 km/h (2 Bft)
16.01.2008 13:36 17,4 C 8,1 C 47 % 74 % 996,3 hPa 0,0 l/m 2,9 km/h (1 Bft)
16.01.2008 13:38 17,4 C 8,1 C 47 % 74 % 996,3 hPa 0,0 l/m 8,3 km/h (2 Bft)
16.01.2008 13:40 17,4 C 8,1 C 47 % 74 % 996,3 hPa 0,0 l/m 8,3 km/h (2 Bft)
16.01.2008 13:42 17,4 C 8,2 C 47 % 74 % 996,3 hPa 0,0 l/m 10,8 km/h (2 Bft)
16.01.2008 13:44 17,4 C 8,2 C 47 % 74 % 996,3 hPa 0,0 l/m 2,9 km/h (1 Bft)
16.01.2008 13:46 17,4 C 8,2 C 47 % 74 % 996,3 hPa 0,0 l/m 0,0 km/h (0 Bft)
16.01.2008 13:48 17,4 C 8,2 C 47 % 74 % 997,4 hPa 0,0 l/m 11,5 km/h (2 Bft)
16.01.2008 13:50 17,4 C 8,2 C 47 % 74 % 996,3 hPa 0,0 l/m 0,0 km/h (0 Bft)
16.01.2008 13:52 17,4 C 8,3 C 47 % 74 % 996,3 hPa 0,0 l/m 4,3 km/h (1 Bft)
16.01.2008 13:54 17,4 C 8,3 C 47 % 74 % 996,3 hPa 0,0 l/m 0,0 km/h (0 Bft)
16.01.2008 13:56 17,4 C 8,2 C 47 % 74 % 997,4 hPa 0,0 l/m 0,0 km/h (0 Bft)
16.01.2008 13:58 17,4 C 8,3 C 47 % 74 % 997,3 hPa 0,0 l/m 3,2 km/h (1 Bft)
16.01.2008 14:00 17,4 C 8,3 C 47 % 74 % 997,3 hPa 0,0 l/m 8,6 km/h (2 Bft)
16.01.2008 14:02 17,4 C 8,3 C 47 % 74 % 997,3 hPa 0,0 l/m 0,4 km/h (0 Bft)
16.01.2008 14:04 17,4 C 8,3 C 46 % 74 % 997,3 hPa 0,0 l/m 8,6 km/h (2 Bft)
16.01.2008 14:06 17,4 C 8,3 C 46 % 74 % 997,3 hPa 0,0 l/m 1,1 km/h (1 Bft)
16.01.2008 14:08 17,4 C 8,4 C 46 % 74 % 997,3 hPa 0,0 l/m 8,6 km/h (2 Bft)
16.01.2008 14:10 17,4 C 8,4 C 46 % 74 % 997,3 hPa 0,0 l/m 8,6 km/h (2 Bft)
16.01.2008 14:12 17,4 C 8,4 C 46 % 74 % 997,3 hPa 0,0 l/m 10,1 km/h (2 Bft)
16.01.2008 14:14 17,4 C 8,4 C 46 % 74 % 997,3 hPa 0,0 l/m 7,6 km/h (2 Bft)
16.01.2008 14:16 17,4 C 8,4 C 46 % 74 % 997,3 hPa 0,0 l/m 0,0 km/h (0 Bft)
16.01.2008 14:18 17,4 C 8,4 C 46 % 74 % 997,3 hPa 0,0 l/m 0,0 km/h (0 Bft)
16.01.2008 14:20 17,4 C 8,4 C 46 % 74 % 997,3 hPa 0,0 l/m 6,8 km/h (2 Bft)
16.01.2008 14:22 17,4 C 8,4 C 46 % 74 % 997,3 hPa 0,0 l/m 5,0 km/h (1 Bft)
16.01.2008 14:24 17,4 C 8,4 C 46 % 74 % 997,3 hPa 0,0 l/m 0,0 km/h (0 Bft)
16.01.2008 14:26 17,4 C 8,4 C 46 % 74 % 997,3 hPa 0,0 l/m 4,3 km/h (1 Bft)
16.01.2008 14:28 17,4 C 8,4 C 46 % 74 % 997,3 hPa 0,0 l/m 2,5 km/h (1 Bft)
16.01.2008 14:30 17,4 C 8,4 C 46 % 74 % 997,3 hPa 0,0 l/m 6,1 km/h (2 Bft)
16.01.2008 14:32 17,4 C 8,4 C 46 % 74 % 997,3 hPa 0,0 l/m 1,8 km/h (1 Bft)
16.01.2008 14:34 17,4 C 8,4 C 46 % 74 % 997,3 hPa 0,0 l/m 5,0 km/h (1 Bft)
16.01.2008 14:36 17,4 C 8,4 C 46 % 74 % 997,3 hPa 0,0 l/m 1,4 km/h (1 Bft)
16.01.2008 14:38 17,4 C 8,4 C 46 % 74 % 997,3 hPa 0,0 l/m 7,9 km/h (2 Bft)
16.01.2008 14:40 17,4 C 8,4 C 46 % 74 % 997,3 hPa 0,0 l/m 7,9 km/h (2 Bft)
16.01.2008 14:42 17,3 C 8,4 C 46 % 74 % 997,3 hPa 0,0 l/m 0,0 km/h (0 Bft)
16.01.2008 14:44 17,4 C 8,4 C 46 % 74 % 997,3 hPa 0,0 l/m 7,9 km/h (2 Bft)
16.01.2008 14:46 17,4 C 8,4 C 46 % 74 % 997,3 hPa 0,0 l/m 6,5 km/h (2 Bft)
16.01.2008 14:48 17,4 C 8,4 C 46 % 74 % 997,3 hPa 0,0 l/m 2,9 km/h (1 Bft)
16.01.2008 14:50 17,4 C 8,4 C 46 % 74 % 997,3 hPa 0,0 l/m 2,2 km/h (1 Bft)
16.01.2008 14:52 17,4 C 8,4 C 46 % 74 % 997,3 hPa 0,0 l/m 5,4 km/h (1 Bft)
16.01.2008 14:54 17,4 C 8,5 C 46 % 74 % 997,3 hPa 0,0 l/m 5,8 km/h (2 Bft)
16.01.2008 14:56 17,4 C 8,5 C 46 % 74 % 997,3 hPa 0,0 l/m 0,0 km/h (0 Bft)
16.01.2008 14:58 17,4 C 8,5 C 46 % 74 % 997,3 hPa 0,0 l/m 11,2 km/h (2 Bft)
16.01.2008 15:00 17,4 C 8,5 C 46 % 73 % 997,3 hPa 0,0 l/m 0,0 km/h (0 Bft)
16.01.2008 15:02 17,4 C 8,5 C 46 % 73 % 997,3 hPa 0,0 l/m 0,0 km/h (0 Bft)
16.01.2008 15:04 17,4 C 8,5 C 46 % 73 % 997,3 hPa 0,0 l/m 8,6 km/h (2 Bft)
16.01.2008 15:06 17,4 C 8,5 C 46 % 73 % 998,4 hPa 0,0 l/m 5,0 km/h (1 Bft)
16.01.2008 15:08 17,4 C 8,6 C 46 % 73 % 997,3 hPa 0,0 l/m 6,5 km/h (2 Bft)
16.01.2008 15:10 17,4 C 8,5 C 46 % 73 % 997,3 hPa 0,0 l/m 7,6 km/h (2 Bft)
16.01.2008 15:12 17,4 C 8,5 C 46 % 73 % 998,4 hPa 0,0 l/m 7,6 km/h (2 Bft)
16.01.2008 15:14 17,4 C 8,6 C 46 % 73 % 998,3 hPa 0,0 l/m 0,0 km/h (0 Bft)
16.01.2008 15:16 17,3 C 8,6 C 46 % 73 % 998,3 hPa 0,0 l/m 5,8 km/h (2 Bft)
16.01.2008 15:18 17,4 C 8,6 C 46 % 73 % 998,3 hPa 0,0 l/m 0,0 km/h (0 Bft)
16.01.2008 15:20 17,4 C 8,5 C 46 % 72 % 998,4 hPa 0,0 l/m 5,4 km/h (1 Bft)
16.01.2008 15:22 17,4 C 8,5 C 46 % 72 % 998,4 hPa 0,0 l/m 1,4 km/h (1 Bft)
16.01.2008 15:24 17,4 C 8,5 C 46 % 72 % 998,4 hPa 0,0 l/m 11,2 km/h (2 Bft)
16.01.2008 15:26 17,4 C 8,5 C 46 % 72 % 998,4 hPa 0,0 l/m 6,1 km/h (2 Bft)
16.01.2008 15:28 17,3 C 8,5 C 46 % 72 % 998,4 hPa 0,0 l/m 3,6 km/h (1 Bft)
16.01.2008 15:30 17,3 C 8,4 C 46 % 72 % 998,4 hPa 0,0 l/m 0,0 km/h (0 Bft)
16.01.2008 15:32 17,4 C 8,4 C 46 % 72 % 998,4 hPa 0,0 l/m 0,0 km/h (0 Bft)
16.01.2008 15:34 17,4 C 8,4 C 46 % 72 % 998,4 hPa 0,0 l/m 0,0 km/h (0 Bft)
16.01.2008 15:36 17,3 C 8,4 C 46 % 72 % 998,4 hPa 0,0 l/m 0,0 km/h (0 Bft)
16.01.2008 15:38 17,4 C 8,4 C 46 % 72 % 998,4 hPa 0,0 l/m 0,0 km/h (0 Bft)
16.01.2008 15:40 17,3 C 8,3 C 46 % 73 % 998,4 hPa 0,0 l/m 0,0 km/h (0 Bft)
16.01.2008 15:42 17,3 C 8,3 C 46 % 73 % 998,4 hPa 0,0 l/m 0,0 km/h (0 Bft)
16.01.2008 15:44 17,3 C 8,3 C 46 % 73 % 998,4 hPa 0,0 l/m 0,0 km/h (0 Bft)
16.01.2008 15:46 17,3 C 8,3 C 46 % 73 % 998,4 hPa 0,0 l/m 0,0 km/h (0 Bft)
16.01.2008 15:48 17,3 C 8,3 C 46 % 73 % 998,4 hPa 0,0 l/m 0,0 km/h (0 Bft)
16.01.2008 15:50 17,3 C 8,2 C 46 % 73 % 998,4 hPa 0,0 l/m 0,0 km/h (0 Bft)
16.01.2008 15:52 17,3 C 8,2 C 46 % 73 % 998,4 hPa 0,0 l/m 0,0 km/h (0 Bft)
16.01.2008 15:54 17,3 C 8,1 C 46 % 73 % 998,4 hPa 0,0 l/m 0,0 km/h (0 Bft)
16.01.2008 15:56 17,3 C 8,1 C 46 % 73 % 998,4 hPa 0,0 l/m 0,0 km/h (0 Bft)
16.01.2008 15:58 17,3 C 8,1 C 46 % 73 % 998,4 hPa 0,0 l/m 0,0 km/h (0 Bft)
16.01.2008 16:00 17,3 C 8,1 C 46 % 73 % 998,4 hPa 0,0 l/m 0,0 km/h (0 Bft)
16.01.2008 16:02 17,4 C 8,1 C 46 % 73 % 998,4 hPa 0,0 l/m 0,0 km/h (0 Bft)
16.01.2008 16:04 17,3 C 8,1 C 46 % 73 % 998,4 hPa 0,0 l/m 2,2 km/h (1 Bft)
16.01.2008 16:06 17,3 C 8,1 C 46 % 73 % 998,4 hPa 0,0 l/m 0,0 km/h (0 Bft)
16.01.2008 16:08 17,3 C 8,0 C 46 % 74 % 998,4 hPa 0,0 l/m 0,0 km/h (0 Bft)
16.01.2008 16:10 17,3 C 7,9 C 46 % 74 % 998,4 hPa 0,0 l/m 0,0 km/h (0 Bft)
16.01.2008 16:12 17,3 C 7,9 C 46 % 74 % 998,4 hPa 0,0 l/m 0,0 km/h (0 Bft)
16.01.2008 16:14 17,3 C 7,9 C 46 % 74 % 998,4 hPa 0,0 l/m 0,0 km/h (0 Bft)
16.01.2008 16:16 17,3 C 7,9 C 46 % 74 % 998,4 hPa 0,0 l/m 1,8 km/h (1 Bft)
16.01.2008 16:18 17,3 C 7,9 C 46 % 74 % 998,4 hPa 0,0 l/m 0,0 km/h (0 Bft)
16.01.2008 16:20 17,3 C 7,9 C 46 % 74 % 998,4 hPa 0,0 l/m 0,0 km/h (0 Bft)
16.01.2008 16:22 17,3 C 7,9 C 46 % 74 % 998,4 hPa 0,0 l/m 0,0 km/h (0 Bft)
16.01.2008 16:24 17,3 C 7,9 C 46 % 74 % 998,4 hPa 0,0 l/m 0,0 km/h (0 Bft)
16.01.2008 16:26 17,3 C 7,8 C 46 % 74 % 998,4 hPa 0,0 l/m 0,0 km/h (0 Bft)
16.01.2008 16:28 17,4 C 7,8 C 46 % 74 % 998,4 hPa 0,0 l/m 0,0 km/h (0 Bft)
16.01.2008 16:30 17,3 C 7,8 C 46 % 74 % 998,4 hPa 0,0 l/m 0,0 km/h (0 Bft)
16.01.2008 16:32 17,3 C 7,8 C 46 % 74 % 998,4 hPa 0,0 l/m 0,0 km/h (0 Bft)
16.01.2008 16:34 17,3 C 7,6 C 46 % 74 % 998,4 hPa 0,0 l/m 0,0 km/h (0 Bft)
16.01.2008 16:36 17,3 C 7,6 C 46 % 74 % 998,4 hPa 0,0 l/m 0,0 km/h (0 Bft)
16.01.2008 16:38 17,3 C 7,6 C 46 % 74 % 998,4 hPa 0,0 l/m 0,0 km/h (0 Bft)
16.01.2008 16:40 17,3 C 7,5 C 46 % 74 % 998,4 hPa 0,0 l/m 0,0 km/h (0 Bft)
16.01.2008 16:42 17,3 C 7,5 C 46 % 74 % 998,4 hPa 0,0 l/m 0,0 km/h (0 Bft)
16.01.2008 16:44 17,3 C 7,5 C 46 % 74 % 998,4 hPa 0,0 l/m 0,0 km/h (0 Bft)
16.01.2008 16:46 17,3 C 7,4 C 46 % 74 % 998,4 hPa 0,0 l/m 0,0 km/h (0 Bft)
16.01.2008 16:48 17,3 C 7,4 C 46 % 74 % 998,4 hPa 0,0 l/m 0,0 km/h (0 Bft)
16.01.2008 16:50 17,3 C 7,3 C 46 % 74 % 998,4 hPa 0,0 l/m 0,0 km/h (0 Bft)
16.01.2008 16:52 17,3 C 7,3 C 46 % 74 % 998,4 hPa 0,0 l/m 0,0 km/h (0 Bft)
16.01.2008 16:54 17,3 C 7,3 C 46 % 75 % 999,4 hPa 0,0 l/m 0,0 km/h (0 Bft)
16.01.2008 16:56 17,3 C 7,3 C 46 % 75 % 999,4 hPa 0,0 l/m 0,0 km/h (0 Bft)
16.01.2008 16:58 17,3 C 7,2 C 46 % 75 % 999,4 hPa 0,0 l/m 0,0 km/h (0 Bft)
16.01.2008 17:00 17,3 C 7,2 C 46 % 75 % 999,4 hPa 0,0 l/m 0,0 km/h (0 Bft)
16.01.2008 17:02 17,3 C 7,2 C 46 % 75 % 999,4 hPa 0,0 l/m 0,0 km/h (0 Bft)
16.01.2008 17:04 17,3 C 7,2 C 46 % 75 % 999,4 hPa 0,0 l/m 0,0 km/h (0 Bft)
16.01.2008 17:06 17,3 C 7,2 C 46 % 75 % 999,4 hPa 0,0 l/m 0,0 km/h (0 Bft)
16.01.2008 17:08 17,3 C 7,2 C 46 % 75 % 999,4 hPa 0,0 l/m 0,0 km/h (0 Bft)
16.01.2008 17:10 17,3 C 7,2 C 46 % 75 % 999,4 hPa 0,0 l/m 0,0 km/h (0 Bft)
16.01.2008 17:12 17,3 C 7,2 C 46 % 75 % 999,4 hPa 0,0 l/m 0,0 km/h (0 Bft)
16.01.2008 17:14 17,3 C 7,1 C 46 % 75 % 999,4 hPa 0,0 l/m 0,0 km/h (0 Bft)
16.01.2008 17:16 17,3 C 7,1 C 46 % 75 % 999,4 hPa 0,0 l/m 0,0 km/h (0 Bft)
16.01.2008 17:18 17,3 C 7,2 C 46 % 75 % 999,4 hPa 0,0 l/m 0,0 km/h (0 Bft)
16.01.2008 17:20 17,3 C 7,2 C 46 % 75 % 999,4 hPa 0,0 l/m 0,0 km/h (0 Bft)
16.01.2008 17:22 17,4 C 7,2 C 47 % 75 % 999,4 hPa 0,0 l/m 0,0 km/h (0 Bft)
16.01.2008 17:24 17,3 C 7,2 C 47 % 75 % 999,4 hPa 0,0 l/m 0,0 km/h (0 Bft)
16.01.2008 17:26 17,4 C 7,2 C 47 % 75 % 999,4 hPa 0,0 l/m 0,0 km/h (0 Bft)
16.01.2008 17:28 17,4 C 7,2 C 47 % 75 % 999,4 hPa 0,0 l/m 0,0 km/h (0 Bft)
16.01.2008 17:30 17,4 C 7,2 C 47 % 75 % 999,4 hPa 0,0 l/m 0,0 km/h (0 Bft)
16.01.2008 17:32 17,4 C 7,2 C 47 % 75 % 999,4 hPa 0,0 l/m 0,0 km/h (0 Bft)
16.01.2008 17:34 17,4 C 7,2 C 47 % 75 % 999,4 hPa 0,0 l/m 0,0 km/h (0 Bft)
16.01.2008 17:36 17,4 C 7,2 C 47 % 75 % 999,4 hPa 0,0 l/m 0,0 km/h (0 Bft)
16.01.2008 17:38 17,4 C 7,2 C 47 % 75 % 999,4 hPa 0,0 l/m 0,0 km/h (0 Bft)
16.01.2008 17:40 17,4 C 7,2 C 47 % 75 % 999,4 hPa 0,0 l/m 0,0 km/h (0 Bft)
16.01.2008 17:42 17,4 C 7,2 C 47 % 75 % 999,4 hPa 0,0 l/m 0,0 km/h (0 Bft)
16.01.2008 17:44 17,4 C 7,2 C 47 % 75 % 999,4 hPa 0,0 l/m 0,0 km/h (0 Bft)
16.01.2008 17:46 17,4 C 7,2 C 47 % 75 % 999,4 hPa 0,0 l/m 0,0 km/h (0 Bft)
16.01.2008 17:48 17,5 C 7,2 C 47 % 75 % 999,4 hPa 0,0 l/m 0,0 km/h (0 Bft)
16.01.2008 17:50 17,5 C 7,2 C 47 % 75 % 999,4 hPa 0,0 l/m 0,0 km/h (0 Bft)
16.01.2008 17:52 17,5 C 7,2 C 47 % 75 % 999,4 hPa 0,0 l/m 0,0 km/h (0 Bft)
16.01.2008 17:54 17,5 C 7,1 C 47 % 75 % 999,4 hPa 0,0 l/m 0,0 km/h (0 Bft)
16.01.2008 17:56 17,5 C 7,1 C 47 % 75 % 999,4 hPa 0,0 l/m 0,0 km/h (0 Bft)
16.01.2008 17:58 17,5 C 7,1 C 47 % 75 % 1000,4 hPa 0,0 l/m 0,0 km/h (0 Bft)
16.01.2008 18:00 17,5 C 7,1 C 47 % 75 % 1000,4 hPa 0,0 l/m 0,0 km/h (0 Bft)
16.01.2008 18:02 17,5 C 7,0 C 47 % 76 % 1000,4 hPa 0,0 l/m 0,0 km/h (0 Bft)
16.01.2008 18:04 17,5 C 7,0 C 47 % 76 % 1000,4 hPa 0,0 l/m 0,0 km/h (0 Bft)
16.01.2008 18:06 17,5 C 7,0 C 47 % 76 % 1000,4 hPa 0,0 l/m 0,0 km/h (0 Bft)
16.01.2008 18:08 17,5 C 7,0 C 47 % 76 % 1000,4 hPa 0,0 l/m 0,0 km/h (0 Bft)
16.01.2008 18:10 17,5 C 7,0 C 47 % 76 % 1000,4 hPa 0,0 l/m 0,0 km/h (0 Bft)
16.01.2008 18:12 17,5 C 7,0 C 47 % 76 % 1000,4 hPa 0,0 l/m 0,0 km/h (0 Bft)
16.01.2008 18:14 17,5 C 6,9 C 47 % 76 % 1000,4 hPa 0,0 l/m 0,0 km/h (0 Bft)
16.01.2008 18:16 17,5 C 6,9 C 47 % 76 % 1000,4 hPa 0,0 l/m 0,0 km/h (0 Bft)
16.01.2008 18:18 17,5 C 6,9 C 47 % 76 % 1000,4 hPa 0,0 l/m 0,0 km/h (0 Bft)
16.01.2008 18:20 17,5 C 6,9 C 47 % 76 % 1000,4 hPa 0,0 l/m 0,0 km/h (0 Bft)
16.01.2008 18:22 17,5 C 6,9 C 47 % 76 % 1000,4 hPa 0,0 l/m 0,0 km/h (0 Bft)
16.01.2008 18:24 17,5 C 6,9 C 47 % 76 % 1000,4 hPa 0,0 l/m 0,0 km/h (0 Bft)
16.01.2008 18:26 17,5 C 6,9 C 47 % 76 % 1000,4 hPa 0,0 l/m 0,0 km/h (0 Bft)
16.01.2008 18:28 17,5 C 6,9 C 47 % 76 % 1000,4 hPa 0,0 l/m 0,0 km/h (0 Bft)
16.01.2008 18:30 17,5 C 6,9 C 47 % 76 % 1000,4 hPa 0,0 l/m 0,0 km/h (0 Bft)
16.01.2008 18:32 17,5 C 6,9 C 47 % 76 % 1000,4 hPa 0,0 l/m 0,0 km/h (0 Bft)
16.01.2008 18:34 17,5 C 6,9 C 47 % 76 % 1000,4 hPa 0,0 l/m 0,0 km/h (0 Bft)
16.01.2008 18:36 17,5 C 6,9 C 47 % 76 % 1000,4 hPa 0,0 l/m 0,0 km/h (0 Bft)
16.01.2008 18:38 17,5 C 6,9 C 47 % 76 % 1000,4 hPa 0,0 l/m 0,0 km/h (0 Bft)
16.01.2008 18:40 17,5 C 6,9 C 47 % 76 % 1000,4 hPa 0,0 l/m 0,0 km/h (0 Bft)
16.01.2008 18:42 17,5 C 6,9 C 47 % 76 % 1000,4 hPa 0,0 l/m 0,0 km/h (0 Bft)
16.01.2008 18:44 17,5 C 6,9 C 47 % 76 % 1000,4 hPa 0,0 l/m 0,0 km/h (0 Bft)
16.01.2008 18:46 17,5 C 6,9 C 47 % 76 % 1000,4 hPa 0,0 l/m 0,0 km/h (0 Bft)
16.01.2008 18:48 17,5 C 6,9 C 47 % 76 % 1000,4 hPa 0,0 l/m 0,0 km/h (0 Bft)
16.01.2008 18:50 17,5 C 6,9 C 47 % 76 % 1000,4 hPa 0,0 l/m 0,0 km/h (0 Bft)
16.01.2008 18:52 17,6 C 6,9 C 47 % 76 % 1000,4 hPa 0,0 l/m 0,0 km/h (0 Bft)
16.01.2008 18:54 17,6 C 6,9 C 47 % 76 % 1000,4 hPa 0,0 l/m 0,0 km/h (0 Bft)
16.01.2008 18:56 17,6 C 6,9 C 47 % 76 % 1000,4 hPa 0,0 l/m 0,0 km/h (0 Bft)
16.01.2008 18:58 17,6 C 6,9 C 47 % 77 % 1000,4 hPa 0,0 l/m 0,0 km/h (0 Bft)
16.01.2008 19:00 17,6 C 6,9 C 47 % 77 % 1000,4 hPa 0,0 l/m 0,0 km/h (0 Bft)
16.01.2008 19:02 17,7 C 6,9 C 47 % 77 % 1000,4 hPa 0,0 l/m 0,0 km/h (0 Bft)
16.01.2008 19:04 17,7 C 6,9 C 47 % 77 % 1000,4 hPa 0,0 l/m 0,0 km/h (0 Bft)
16.01.2008 19:06 17,7 C 7,0 C 47 % 77 % 1000,4 hPa 0,0 l/m 0,0 km/h (0 Bft)
16.01.2008 19:08 17,7 C 7,0 C 47 % 77 % 1000,4 hPa 0,0 l/m 0,0 km/h (0 Bft)
16.01.2008 19:10 17,8 C 7,0 C 47 % 77 % 1000,4 hPa 0,0 l/m 0,0 km/h (0 Bft)
16.01.2008 19:12 17,8 C 7,0 C 47 % 77 % 1000,4 hPa 0,0 l/m 0,0 km/h (0 Bft)
16.01.2008 19:14 17,8 C 7,0 C 47 % 77 % 1000,4 hPa 0,0 l/m 0,0 km/h (0 Bft)
16.01.2008 19:16 17,8 C 7,0 C 47 % 77 % 1000,4 hPa 0,0 l/m 0,0 km/h (0 Bft)
16.01.2008 19:18 17,8 C 7,1 C 47 % 77 % 1000,4 hPa 0,0 l/m 0,0 km/h (0 Bft)
16.01.2008 19:20 17,9 C 7,1 C 47 % 77 % 1000,4 hPa 0,0 l/m 0,0 km/h (0 Bft)
16.01.2008 19:22 17,9 C 7,1 C 47 % 77 % 1000,4 hPa 0,0 l/m 0,0 km/h (0 Bft)
16.01.2008 19:24 17,9 C 7,1 C 47 % 77 % 1000,4 hPa 0,0 l/m 0,0 km/h (0 Bft)
16.01.2008 19:26 17,9 C 7,1 C 47 % 77 % 1000,4 hPa 0,0 l/m 0,0 km/h (0 Bft)
16.01.2008 19:28 18,0 C 7,1 C 48 % 77 % 1000,4 hPa 0,0 l/m 0,0 km/h (0 Bft)
16.01.2008 19:30 18,0 C 7,1 C 48 % 77 % 1000,4 hPa 0,0 l/m 0,0 km/h (0 Bft)
16.01.2008 19:32 18,0 C 7,2 C 48 % 77 % 1000,4 hPa 0,0 l/m 0,0 km/h (0 Bft)
16.01.2008 19:34 18,0 C 7,2 C 48 % 77 % 1000,4 hPa 0,0 l/m 0,0 km/h (0 Bft)
16.01.2008 19:36 18,0 C 7,2 C 48 % 77 % 1000,4 hPa 0,0 l/m 0,0 km/h (0 Bft)
16.01.2008 19:38 18,0 C 7,2 C 48 % 77 % 1001,4 hPa 0,0 l/m 4,3 km/h (1 Bft)
16.01.2008 19:40 18,0 C 7,2 C 48 % 77 % 1001,4 hPa 0,0 l/m 0,0 km/h (0 Bft)
16.01.2008 19:42 18,0 C 7,2 C 48 % 77 % 1001,4 hPa 0,0 l/m 0,0 km/h (0 Bft)
16.01.2008 19:44 18,1 C 7,2 C 48 % 77 % 1001,4 hPa 0,0 l/m 0,0 km/h (0 Bft)
16.01.2008 19:46 18,1 C 7,2 C 48 % 77 % 1001,4 hPa 0,0 l/m 2,5 km/h (1 Bft)
16.01.2008 19:48 18,1 C 7,2 C 48 % 77 % 1001,4 hPa 0,0 l/m 0,0 km/h (0 Bft)
16.01.2008 19:50 18,1 C 7,2 C 48 % 77 % 1001,4 hPa 0,0 l/m 0,0 km/h (0 Bft)
16.01.2008 19:52 18,2 C 7,2 C 48 % 77 % 1001,4 hPa 0,0 l/m 0,0 km/h (0 Bft)
16.01.2008 19:54 18,2 C 7,3 C 48 % 77 % 1001,4 hPa 0,0 l/m 0,0 km/h (0 Bft)
16.01.2008 19:56 18,2 C 7,3 C 48 % 77 % 1001,4 hPa 0,0 l/m 0,0 km/h (0 Bft)
16.01.2008 19:58 18,2 C 7,3 C 48 % 77 % 1001,4 hPa 0,0 l/m 0,0 km/h (0 Bft)
16.01.2008 20:00 18,2 C 7,3 C 48 % 77 % 1001,4 hPa 0,0 l/m 0,0 km/h (0 Bft)
16.01.2008 20:02 18,3 C 7,3 C 48 % 77 % 1001,4 hPa 0,0 l/m 0,0 km/h (0 Bft)
16.01.2008 20:04 18,3 C 7,3 C 48 % 77 % 1001,4 hPa 0,0 l/m 0,0 km/h (0 Bft)
16.01.2008 20:06 18,3 C 7,3 C 48 % 77 % 1001,4 hPa 0,0 l/m 0,0 km/h (0 Bft)
16.01.2008 20:08 18,3 C 7,3 C 48 % 77 % 1001,4 hPa 0,0 l/m 0,0 km/h (0 Bft)
16.01.2008 20:10 18,3 C 7,3 C 48 % 77 % 1001,4 hPa 0,0 l/m 0,0 km/h (0 Bft)
16.01.2008 20:12 18,4 C 7,3 C 48 % 78 % 1001,4 hPa 0,0 l/m 0,0 km/h (0 Bft)
16.01.2008 20:14 18,4 C 7,3 C 48 % 78 % 1001,4 hPa 0,0 l/m 0,0 km/h (0 Bft)
16.01.2008 20:16 18,4 C 7,3 C 48 % 78 % 1001,4 hPa 0,0 l/m 0,0 km/h (0 Bft)
16.01.2008 20:18 18,4 C 7,3 C 48 % 78 % 1001,4 hPa 0,0 l/m 0,0 km/h (0 Bft)
16.01.2008 20:20 18,4 C 7,2 C 47 % 78 % 1001,4 hPa 0,0 l/m 0,0 km/h (0 Bft)
16.01.2008 20:22 18,4 C 7,2 C 47 % 79 % 1001,4 hPa 0,0 l/m 0,0 km/h (0 Bft)
16.01.2008 20:24 18,4 C 7,2 C 47 % 79 % 1001,4 hPa 0,0 l/m 0,0 km/h (0 Bft)
16.01.2008 20:26 18,4 C 7,2 C 47 % 79 % 1001,4 hPa 0,0 l/m 2,5 km/h (1 Bft)
16.01.2008 20:28 18,4 C 7,2 C 47 % 79 % 1001,4 hPa 0,0 l/m 0,0 km/h (0 Bft)
16.01.2008 20:30 18,4 C 7,2 C 47 % 79 % 1001,4 hPa 0,0 l/m 0,0 km/h (0 Bft)
16.01.2008 20:32 18,4 C 7,2 C 47 % 79 % 1001,4 hPa 0,0 l/m 0,0 km/h (0 Bft)
16.01.2008 20:34 18,4 C 7,2 C 47 % 79 % 1001,4 hPa 0,0 l/m 0,0 km/h (0 Bft)
16.01.2008 20:36 18,4 C 7,2 C 47 % 79 % 1001,4 hPa 0,0 l/m 0,0 km/h (0 Bft)
16.01.2008 20:38 18,4 C 7,2 C 47 % 80 % 1001,4 hPa 0,0 l/m 0,0 km/h (0 Bft)
16.01.2008 20:40 18,4 C 7,2 C 47 % 80 % 1002,4 hPa 0,0 l/m 0,0 km/h (0 Bft)
16.01.2008 20:42 18,4 C 7,2 C 47 % 80 % 1002,4 hPa 0,0 l/m 0,4 km/h (0 Bft)
16.01.2008 20:44 18,4 C 7,2 C 47 % 80 % 1002,4 hPa 0,0 l/m 0,4 km/h (0 Bft)
16.01.2008 20:46 18,4 C 7,2 C 47 % 80 % 1002,4 hPa 0,0 l/m 0,0 km/h (0 Bft)
16.01.2008 20:48 18,4 C 7,2 C 47 % 80 % 1002,4 hPa 0,0 l/m 0,0 km/h (0 Bft)
16.01.2008 20:50 18,4 C 7,2 C 47 % 80 % 1002,4 hPa 0,0 l/m 0,0 km/h (0 Bft)
16.01.2008 20:52 18,4 C 7,1 C 47 % 80 % 1002,4 hPa 0,0 l/m 0,0 km/h (0 Bft)
16.01.2008 20:54 18,4 C 7,1 C 47 % 81 % 1002,4 hPa 0,0 l/m 0,0 km/h (0 Bft)
16.01.2008 20:56 18,4 C 7,1 C 47 % 81 % 1002,4 hPa 0,0 l/m 4,7 km/h (1 Bft)
16.01.2008 20:58 18,4 C 7,1 C 47 % 81 % 1002,4 hPa 0,0 l/m 1,8 km/h (1 Bft)
16.01.2008 21:00 18,3 C 7,1 C 47 % 81 % 1002,4 hPa 0,0 l/m 0,0 km/h (0 Bft)
16.01.2008 21:02 18,3 C 7,1 C 47 % 81 % 1002,4 hPa 0,0 l/m 0,0 km/h (0 Bft)
16.01.2008 21:04 18,3 C 7,0 C 47 % 81 % 1002,4 hPa 0,0 l/m 0,0 km/h (0 Bft)
16.01.2008 21:06 18,3 C 7,0 C 47 % 81 % 1002,4 hPa 0,0 l/m 0,0 km/h (0 Bft)
16.01.2008 21:08 18,3 C 7,0 C 47 % 81 % 1002,4 hPa 0,0 l/m 0,0 km/h (0 Bft)
16.01.2008 21:10 18,3 C 7,0 C 47 % 81 % 1002,4 hPa 0,0 l/m 0,0 km/h (0 Bft)
16.01.2008 21:12 18,3 C 6,9 C 47 % 82 % 1002,4 hPa 0,0 l/m 0,0 km/h (0 Bft)
16.01.2008 21:14 18,3 C 6,9 C 47 % 82 % 1002,4 hPa 0,0 l/m 0,0 km/h (0 Bft)
16.01.2008 21:16 18,3 C 6,9 C 47 % 82 % 1002,4 hPa 0,0 l/m 0,0 km/h (0 Bft)
16.01.2008 21:18 18,3 C 6,9 C 47 % 82 % 1002,4 hPa 0,0 l/m 0,0 km/h (0 Bft)
16.01.2008 21:20 18,2 C 6,9 C 47 % 82 % 1002,4 hPa 0,0 l/m 0,0 km/h (0 Bft)
16.01.2008 21:22 18,2 C 6,9 C 47 % 82 % 1002,4 hPa 0,0 l/m 0,0 km/h (0 Bft)
16.01.2008 21:24 18,2 C 6,9 C 47 % 82 % 1002,4 hPa 0,0 l/m 0,0 km/h (0 Bft)
16.01.2008 21:26 18,2 C 6,9 C 47 % 82 % 1002,4 hPa 0,0 l/m 0,0 km/h (0 Bft)
16.01.2008 21:28 18,2 C 6,9 C 47 % 82 % 1002,4 hPa 0,0 l/m 0,0 km/h (0 Bft)
16.01.2008 21:30 18,2 C 6,9 C 47 % 82 % 1002,4 hPa 0,0 l/m 0,0 km/h (0 Bft)
16.01.2008 21:32 18,2 C 6,9 C 47 % 82 % 1002,4 hPa 0,0 l/m 0,0 km/h (0 Bft)
16.01.2008 21:34 18,2 C 6,9 C 47 % 82 % 1002,4 hPa 0,0 l/m 0,0 km/h (0 Bft)
16.01.2008 21:36 18,2 C 6,8 C 47 % 82 % 1002,4 hPa 0,0 l/m 0,0 km/h (0 Bft)
16.01.2008 21:38 18,2 C 6,8 C 47 % 83 % 1002,4 hPa 0,0 l/m 0,0 km/h (0 Bft)
16.01.2008 21:40 18,2 C 6,8 C 47 % 83 % 1002,4 hPa 0,0 l/m 0,0 km/h (0 Bft)
16.01.2008 21:42 18,2 C 6,8 C 47 % 83 % 1002,4 hPa 0,0 l/m 0,0 km/h (0 Bft)
16.01.2008 21:44 18,3 C 6,8 C 47 % 83 % 1002,4 hPa 0,0 l/m 0,0 km/h (0 Bft)
16.01.2008 21:46 18,3 C 6,8 C 47 % 83 % 1002,4 hPa 0,0 l/m 0,0 km/h (0 Bft)
16.01.2008 21:48 18,3 C 6,8 C 47 % 83 % 1002,4 hPa 0,0 l/m 0,0 km/h (0 Bft)
16.01.2008 21:50 18,3 C 6,8 C 47 % 83 % 1002,4 hPa 0,0 l/m 0,0 km/h (0 Bft)
16.01.2008 21:52 18,4 C 6,8 C 47 % 83 % 1002,4 hPa 0,0 l/m 0,0 km/h (0 Bft)
16.01.2008 21:54 18,4 C 6,8 C 47 % 83 % 1002,4 hPa 0,0 l/m 0,0 km/h (0 Bft)
16.01.2008 21:56 18,4 C 6,8 C 47 % 84 % 1002,4 hPa 0,0 l/m 0,0 km/h (0 Bft)
16.01.2008 21:58 18,4 C 6,8 C 47 % 84 % 1002,4 hPa 0,0 l/m 0,0 km/h (0 Bft)
16.01.2008 22:00 18,4 C 6,7 C 48 % 84 % 1002,4 hPa 0,0 l/m 0,0 km/h (0 Bft)
16.01.2008 22:02 18,5 C 6,7 C 48 % 84 % 1002,4 hPa 0,0 l/m 1,8 km/h (1 Bft)
16.01.2008 22:04 18,5 C 6,7 C 47 % 84 % 1002,4 hPa 0,0 l/m 1,8 km/h (1 Bft)
16.01.2008 22:06 18,5 C 6,7 C 47 % 84 % 1002,4 hPa 0,0 l/m 0,0 km/h (0 Bft)
16.01.2008 22:08 18,5 C 6,7 C 47 % 85 % 1002,4 hPa 0,0 l/m 0,0 km/h (0 Bft)
16.01.2008 22:10 18,5 C 6,7 C 47 % 85 % 1002,4 hPa 0,0 l/m 1,8 km/h (1 Bft)
16.01.2008 22:12 18,5 C 6,7 C 47 % 85 % 1002,4 hPa 0,0 l/m 0,0 km/h (0 Bft)
16.01.2008 22:14 18,6 C 6,7 C 47 % 85 % 1002,4 hPa 0,0 l/m 0,0 km/h (0 Bft)
16.01.2008 22:16 18,6 C 6,6 C 47 % 85 % 1002,4 hPa 0,0 l/m 0,0 km/h (0 Bft)
16.01.2008 22:18 18,6 C 6,6 C 47 % 85 % 1002,4 hPa 0,0 l/m 0,0 km/h (0 Bft)
16.01.2008 22:20 18,6 C 6,6 C 47 % 85 % 1002,4 hPa 0,0 l/m 0,0 km/h (0 Bft)
16.01.2008 22:22 18,6 C 6,6 C 47 % 85 % 1002,4 hPa 0,0 l/m 0,0 km/h (0 Bft)
16.01.2008 22:24 18,6 C 6,6 C 47 % 85 % 1002,4 hPa 0,0 l/m 0,0 km/h (0 Bft)
16.01.2008 22:26 18,6 C 6,6 C 48 % 85 % 1002,4 hPa 0,0 l/m 0,0 km/h (0 Bft)
16.01.2008 22:28 18,6 C 6,6 C 48 % 85 % 1002,4 hPa 0,0 l/m 0,0 km/h (0 Bft)
16.01.2008 22:30 18,6 C 6,5 C 47 % 85 % 1003,4 hPa 0,0 l/m 0,0 km/h (0 Bft)
16.01.2008 22:32 18,6 C 6,5 C 47 % 85 % 1003,4 hPa 0,0 l/m 0,0 km/h (0 Bft)
16.01.2008 22:34 18,6 C 6,6 C 47 % 85 % 1003,4 hPa 0,0 l/m 0,0 km/h (0 Bft)
16.01.2008 22:36 18,6 C 6,5 C 47 % 85 % 1003,4 hPa 0,0 l/m 0,0 km/h (0 Bft)
16.01.2008 22:38 18,7 C 6,5 C 47 % 85 % 1003,4 hPa 0,0 l/m 0,0 km/h (0 Bft)
16.01.2008 22:40 18,7 C 6,5 C 47 % 85 % 1003,4 hPa 0,0 l/m 0,0 km/h (0 Bft)
16.01.2008 22:42 18,7 C 6,5 C 47 % 85 % 1003,4 hPa 0,0 l/m 0,0 km/h (0 Bft)
16.01.2008 22:44 18,7 C 6,5 C 47 % 85 % 1003,4 hPa 0,0 l/m 0,0 km/h (0 Bft)
16.01.2008 22:46 18,7 C 6,5 C 47 % 85 % 1003,4 hPa 0,0 l/m 0,0 km/h (0 Bft)
16.01.2008 22:48 18,7 C 6,5 C 47 % 85 % 1003,4 hPa 0,0 l/m 0,0 km/h (0 Bft)
16.01.2008 22:50 18,7 C 6,5 C 47 % 85 % 1003,4 hPa 0,0 l/m 0,0 km/h (0 Bft)
16.01.2008 22:52 18,8 C 6,5 C 47 % 85 % 1003,4 hPa 0,0 l/m 0,0 km/h (0 Bft)
16.01.2008 22:54 18,8 C 6,5 C 47 % 85 % 1003,4 hPa 0,0 l/m 0,0 km/h (0 Bft)
16.01.2008 22:56 18,7 C 6,5 C 47 % 85 % 1003,4 hPa 0,0 l/m 0,0 km/h (0 Bft)
16.01.2008 22:58 18,8 C 6,5 C 47 % 85 % 1003,4 hPa 0,0 l/m 0,0 km/h (0 Bft)
16.01.2008 23:00 18,8 C 6,5 C 47 % 85 % 1003,4 hPa 0,0 l/m 0,0 km/h (0 Bft)
16.01.2008 23:02 18,8 C 6,5 C 47 % 85 % 1003,4 hPa 0,0 l/m 0,0 km/h (0 Bft)
16.01.2008 23:04 18,8 C 6,5 C 47 % 85 % 1003,4 hPa 0,0 l/m 0,0 km/h (0 Bft)
16.01.2008 23:06 18,8 C 6,5 C 47 % 85 % 1003,4 hPa 0,0 l/m 0,0 km/h (0 Bft)
16.01.2008 23:08 18,8 C 6,5 C 47 % 85 % 1003,4 hPa 0,0 l/m 0,0 km/h (0 Bft)
16.01.2008 23:10 18,8 C 6,4 C 47 % 85 % 1003,4 hPa 0,0 l/m 0,0 km/h (0 Bft)
16.01.2008 23:12 18,8 C 6,4 C 47 % 85 % 1003,4 hPa 0,0 l/m 0,0 km/h (0 Bft)
16.01.2008 23:14 18,8 C 6,4 C 47 % 85 % 1003,4 hPa 0,0 l/m 0,0 km/h (0 Bft)
16.01.2008 23:16 18,8 C 6,4 C 47 % 85 % 1003,4 hPa 0,0 l/m 0,0 km/h (0 Bft)
16.01.2008 23:18 18,8 C 6,4 C 47 % 85 % 1003,4 hPa 0,0 l/m 0,0 km/h (0 Bft)
16.01.2008 23:20 18,8 C 6,4 C 47 % 85 % 1003,4 hPa 0,0 l/m 0,0 km/h (0 Bft)
16.01.2008 23:22 18,8 C 6,4 C 47 % 85 % 1003,4 hPa 0,0 l/m 0,0 km/h (0 Bft)
16.01.2008 23:24 18,8 C 6,4 C 47 % 85 % 1003,4 hPa 0,0 l/m 0,0 km/h (0 Bft)
16.01.2008 23:26 18,8 C 6,4 C 47 % 85 % 1004,4 hPa 0,0 l/m 0,0 km/h (0 Bft)
16.01.2008 23:28 18,8 C 6,4 C 47 % 85 % 1003,4 hPa 0,0 l/m 0,0 km/h (0 Bft)
16.01.2008 23:30 18,8 C 6,4 C 47 % 85 % 1004,4 hPa 0,0 l/m 0,0 km/h (0 Bft)
16.01.2008 23:32 18,8 C 6,3 C 47 % 85 % 1004,4 hPa 0,0 l/m 0,0 km/h (0 Bft)
16.01.2008 23:34 18,8 C 6,3 C 47 % 85 % 1004,4 hPa 0,0 l/m 0,0 km/h (0 Bft)
16.01.2008 23:36 18,8 C 6,3 C 47 % 85 % 1004,4 hPa 0,0 l/m 0,0 km/h (0 Bft)
16.01.2008 23:38 18,8 C 6,3 C 47 % 85 % 1004,4 hPa 0,0 l/m 0,0 km/h (0 Bft)
16.01.2008 23:40 18,7 C 6,3 C 47 % 85 % 1004,4 hPa 0,0 l/m 0,0 km/h (0 Bft)
16.01.2008 23:42 18,7 C 6,3 C 47 % 85 % 1004,4 hPa 0,0 l/m 0,0 km/h (0 Bft)
16.01.2008 23:44 18,7 C 6,3 C 47 % 85 % 1004,4 hPa 0,0 l/m 0,0 km/h (0 Bft)
16.01.2008 23:46 18,6 C 6,3 C 47 % 85 % 1004,4 hPa 0,0 l/m 0,0 km/h (0 Bft)
16.01.2008 23:48 18,6 C 6,3 C 47 % 85 % 1004,4 hPa 0,0 l/m 0,0 km/h (0 Bft)
16.01.2008 23:50 18,6 C 6,3 C 47 % 85 % 1004,4 hPa 0,0 l/m 0,0 km/h (0 Bft)
16.01.2008 23:52 18,6 C 6,3 C 47 % 85 % 1004,4 hPa 0,0 l/m 0,0 km/h (0 Bft)
16.01.2008 23:54 18,6 C 6,3 C 47 % 85 % 1004,4 hPa 0,0 l/m 0,0 km/h (0 Bft)
16.01.2008 23:56 18,5 C 6,3 C 47 % 85 % 1004,4 hPa 0,0 l/m 0,0 km/h (0 Bft)
16.01.2008 23:58 18,5 C 6,3 C 47 % 85 % 1004,4 hPa 0,0 l/m 0,0 km/h (0 Bft)
_ Min-Zeit 05:02 23:32 00:16 00:36 00:30 - 00:50
Minimum _ 17,3 C 6,3 C 44 % 68 % 988,3 hPa - 0,0 km/h (0 Bft)
_ Max-Zeit 22:52 00:36 19:28 22:08 23:26 07:32 12:54
Maximum _ 18,8 C 9,9 C 48 % 85 % 1004,4 hPa 0,5 l/m 23,4 km/h
N-NW (4 Bft)
Durchschnitt _ 17,7 C 8,0 C 46 % 76 % 995,4 hPa #0,5 l/m 3,1 km/h (1 Bft)
© 2012 W. Hausmann